PWSweather.com
Personal Weather Stations
Station Observations
KNJEWING3
Ewing, NJ 08638

Ewing, NJ 08638

Lat: 40.25193, Lon: -74.77511

Elevation: 106

Station Type: Oregon Scientific WMR968 / SRS100 Solar Radiation Shield. Rain Data At www.cocorahs.org (NJ-MC-11)

Latest ConditionsUpdated 10:43:59 AM EST Saturday, Feb 25, 2017
Currently Today's Max Today's Min Today's Average
Temperature 69.2°F20.7°C 69.2°F20.7°C 56.4°F13.6°C 58.7°F14.8°C
Dew Point 43.8°F6.6°C 59.6°F15.3°C 43.8°F6.6°C 55.0°F12.8°C
Winds 7.5 mph SSW12.1 kmh SSW 12.6 mph S20.3 kmh S - 3.1 mph 5.0 kmh
Wind Gusts 12.6 mph20.3 kmh 12.6 mph20.3 kmh - -
Humidity 40% 98% 40% 89%
Pressure 29.76 in1007.8 mb 29.91 in1012.9 mb 29.76 in1007.8 mb -
Hour Temp Dew Point Humidity Winds Wind Gusts Pressure Precip Precip Rate Daily Precip Total
10:43 AM 69.2°F20.7°C 43.8°F6.6°C 40% 6.4 mph S10.3 kmh S 12.6 mph20.3 kmh 29.76 in1007.8 mb 0.00 in0.0 mm 0.00 in0.0 mm 0.00 in0.0 mm
10:41 AM 69.0°F20.6°C 44.3°F6.8°C 41% 7.5 mph SW12.1 kmh SW 12.6 mph20.3 kmh 29.76 in1007.8 mb 0.00 in0.0 mm 0.00 in0.0 mm 0.00 in0.0 mm
10:40 AM 69.0°F20.6°C 44.3°F6.8°C 41% 9.1 mph SSW14.6 kmh SSW 9.7 mph15.6 kmh 29.76 in1007.8 mb 0.00 in0.0 mm 0.00 in0.0 mm 0.00 in0.0 mm
10:38 AM 68.8°F20.4°C 44.8°F7.1°C 42% 6.4 mph S10.3 kmh S 9.7 mph15.6 kmh 29.76 in1007.8 mb 0.00 in0.0 mm 0.00 in0.0 mm 0.00 in0.0 mm
10:37 AM 68.8°F20.4°C 44.8°F7.1°C 42% 7.5 mph S12.1 kmh S 9.7 mph15.6 kmh 29.76 in1007.8 mb 0.00 in0.0 mm 0.00 in0.0 mm 0.00 in0.0 mm
10:36 AM 68.6°F20.3°C 45.9°F7.7°C 44% 9.7 mph SSW15.6 kmh SSW 9.7 mph15.6 kmh 29.76 in1007.8 mb 0.00 in0.0 mm 0.00 in0.0 mm 0.00 in0.0 mm
10:35 AM 68.4°F20.2°C 46.3°F7.9°C 45% 4.8 mph S7.7 kmh S 9.7 mph15.6 kmh 29.76 in1007.8 mb 0.00 in0.0 mm 0.00 in0.0 mm 0.00 in0.0 mm
10:34 AM 68.3°F20.2°C 46.1°F7.8°C 45% 6.4 mph SSW10.3 kmh SSW 9.7 mph15.6 kmh 29.76 in1007.8 mb 0.00 in0.0 mm 0.00 in0.0 mm 0.00 in0.0 mm
10:33 AM 68.1°F20.1°C 46.0°F7.8°C 45% 7.0 mph SSW11.3 kmh SSW 9.7 mph15.6 kmh 29.76 in1007.8 mb 0.00 in0.0 mm 0.00 in0.0 mm 0.00 in0.0 mm
10:32 AM 68.1°F20.1°C 46.0°F7.8°C 45% 5.9 mph S9.5 kmh S 9.7 mph15.6 kmh 29.76 in1007.8 mb 0.00 in0.0 mm 0.00 in0.0 mm 0.00 in0.0 mm
10:30 AM 67.9°F19.9°C 45.8°F7.7°C 45% 6.4 mph SSW10.3 kmh SSW 11.0 mph17.7 kmh 29.76 in1007.8 mb 0.00 in0.0 mm 0.00 in0.0 mm 0.00 in0.0 mm
10:29 AM 67.7°F19.8°C 45.6°F7.6°C 45% 7.5 mph S12.1 kmh S 11.0 mph17.7 kmh 29.76 in1007.8 mb 0.00 in0.0 mm 0.00 in0.0 mm 0.00 in0.0 mm
10:27 AM 67.5°F19.7°C 45.5°F7.5°C 45% 6.4 mph SW10.3 kmh SW 11.0 mph17.7 kmh 29.76 in1007.8 mb 0.00 in0.0 mm 0.00 in0.0 mm 0.00 in0.0 mm
10:26 AM 67.5°F19.7°C 45.5°F7.5°C 45% 3.8 mph SE6.1 kmh SE 11.0 mph17.7 kmh 29.76 in1007.8 mb 0.00 in0.0 mm 0.00 in0.0 mm 0.00 in0.0 mm
10:25 AM 67.5°F19.7°C 45.5°F7.5°C 45% 7.5 mph SSW12.1 kmh SSW 11.0 mph17.7 kmh 29.76 in1007.8 mb 0.00 in0.0 mm 0.00 in0.0 mm 0.00 in0.0 mm
10:23 AM 67.5°F19.7°C 46.1°F7.8°C 46% 9.7 mph S15.6 kmh S 11.0 mph17.7 kmh 29.76 in1007.8 mb 0.00 in0.0 mm 0.00 in0.0 mm 0.00 in0.0 mm
10:22 AM 67.5°F19.7°C 46.1°F7.8°C 46% 7.5 mph SSW12.1 kmh SSW 10.5 mph16.9 kmh 29.76 in1007.8 mb 0.00 in0.0 mm 0.00 in0.0 mm 0.00 in0.0 mm
10:20 AM 67.2°F19.6°C 45.7°F7.6°C 46% 8.1 mph SSE13.0 kmh SSE 10.5 mph16.9 kmh 29.76 in1007.8 mb 0.00 in0.0 mm 0.00 in0.0 mm 0.00 in0.0 mm
10:19 AM 67.2°F19.6°C 45.7°F7.6°C 46% 4.8 mph SSW7.7 kmh SSW 10.5 mph16.9 kmh 29.76 in1007.8 mb 0.00 in0.0 mm 0.00 in0.0 mm 0.00 in0.0 mm
10:18 AM 67.2°F19.6°C 45.7°F7.6°C 46% 3.8 mph S6.1 kmh S 10.5 mph16.9 kmh 29.76 in1007.8 mb 0.00 in0.0 mm 0.00 in0.0 mm 0.00 in0.0 mm
10:16 AM 67.2°F19.6°C 45.7°F7.6°C 46% 7.0 mph S11.3 kmh S 10.5 mph16.9 kmh 29.76 in1007.8 mb 0.00 in0.0 mm 0.00 in0.0 mm 0.00 in0.0 mm
10:15 AM 67.2°F19.6°C 46.9°F8.3°C 48% 7.5 mph SSW12.1 kmh SSW 9.7 mph15.6 kmh 29.76 in1007.8 mb 0.00 in0.0 mm 0.00 in0.0 mm 0.00 in0.0 mm
10:14 AM 67.0°F19.4°C 46.7°F8.2°C 48% 7.0 mph SSE11.3 kmh SSE 9.7 mph15.6 kmh 29.76 in1007.8 mb 0.00 in0.0 mm 0.00 in0.0 mm 0.00 in0.0 mm
10:12 AM 66.8°F19.3°C 46.5°F8.1°C 48% 4.3 mph SSE6.9 kmh SSE 9.7 mph15.6 kmh 29.76 in1007.8 mb 0.00 in0.0 mm 0.00 in0.0 mm 0.00 in0.0 mm
10:10 AM 66.8°F19.3°C 47.1°F8.4°C 49% 6.4 mph S10.3 kmh S 9.7 mph15.6 kmh 29.76 in1007.8 mb 0.00 in0.0 mm 0.00 in0.0 mm 0.00 in0.0 mm
10:09 AM 66.6°F19.2°C 46.9°F8.3°C 49% 3.8 mph SSW6.1 kmh SSW 9.7 mph15.6 kmh 29.76 in1007.8 mb 0.00 in0.0 mm 0.00 in0.0 mm 0.00 in0.0 mm
10:08 AM 66.8°F19.3°C 47.6°F8.7°C 50% 9.7 mph S15.6 kmh S 9.9 mph15.9 kmh 29.76 in1007.8 mb 0.00 in0.0 mm 0.00 in0.0 mm 0.00 in0.0 mm
10:06 AM 66.6°F19.2°C 48.0°F8.9°C 51% 4.8 mph S7.7 kmh S 9.9 mph15.9 kmh 29.76 in1007.8 mb 0.00 in0.0 mm 0.00 in0.0 mm 0.00 in0.0 mm
10:05 AM 66.6°F19.2°C 48.0°F8.9°C 51% 3.2 mph SSW5.1 kmh SSW 9.9 mph15.9 kmh 29.76 in1007.8 mb 0.00 in0.0 mm 0.00 in0.0 mm 0.00 in0.0 mm
10:04 AM 66.6°F19.2°C 48.5°F9.2°C 52% 6.4 mph SSW10.3 kmh SSW 9.9 mph15.9 kmh 29.76 in1007.8 mb 0.00 in0.0 mm 0.00 in0.0 mm 0.00 in0.0 mm
10:02 AM 66.6°F19.2°C 48.5°F9.2°C 52% 6.4 mph SW10.3 kmh SW 9.9 mph15.9 kmh 29.76 in1007.8 mb 0.00 in0.0 mm 0.00 in0.0 mm 0.00 in0.0 mm
10:01 AM 66.5°F19.2°C 49.3°F9.6°C 54% 3.8 mph SSW6.1 kmh SSW 9.7 mph15.6 kmh 29.76 in1007.8 mb 0.00 in0.0 mm 0.00 in0.0 mm 0.00 in0.0 mm
09:59 AM 66.5°F19.2°C 49.8°F9.9°C 55% 7.5 mph SSW12.1 kmh SSW 7.5 mph12.1 kmh 29.76 in1007.8 mb 0.00 in0.0 mm 0.00 in0.0 mm 0.00 in0.0 mm
09:58 AM 66.3°F19.1°C 50.1°F10.1°C 56% 7.0 mph SSE11.3 kmh SSE 7.0 mph11.3 kmh 29.76 in1007.8 mb 0.00 in0.0 mm 0.00 in0.0 mm 0.00 in0.0 mm
09:57 AM 66.1°F18.9°C 50.0°F10.0°C 56% 3.8 mph S6.1 kmh S 7.5 mph12.1 kmh 29.76 in1007.8 mb 0.00 in0.0 mm 0.00 in0.0 mm 0.00 in0.0 mm
09:56 AM 65.9°F18.8°C 49.3°F9.6°C 55% 3.8 mph SSE6.1 kmh SSE 7.5 mph12.1 kmh 29.76 in1007.8 mb 0.00 in0.0 mm 0.00 in0.0 mm 0.00 in0.0 mm
09:54 AM 65.7°F18.7°C 49.2°F9.6°C 55% 6.4 mph SW10.3 kmh SW 9.7 mph15.6 kmh 29.76 in1007.8 mb 0.00 in0.0 mm 0.00 in0.0 mm 0.00 in0.0 mm
09:53 AM 65.7°F18.7°C 49.2°F9.6°C 55% 6.4 mph SSW10.3 kmh SSW 9.7 mph15.6 kmh 29.76 in1007.8 mb 0.00 in0.0 mm 0.00 in0.0 mm 0.00 in0.0 mm
09:51 AM 65.6°F18.7°C 49.5°F9.7°C 56% 4.3 mph S6.9 kmh S 12.6 mph20.3 kmh 29.76 in1007.8 mb 0.00 in0.0 mm 0.00 in0.0 mm 0.00 in0.0 mm
09:50 AM 65.6°F18.7°C 49.5°F9.7°C 56% 7.0 mph SE11.3 kmh SE 12.6 mph20.3 kmh 29.76 in1007.8 mb 0.00 in0.0 mm 0.00 in0.0 mm 0.00 in0.0 mm
09:49 AM 65.6°F18.7°C 49.5°F9.7°C 56% 4.8 mph SSW7.7 kmh SSW 12.6 mph20.3 kmh 29.76 in1007.8 mb 0.00 in0.0 mm 0.00 in0.0 mm 0.00 in0.0 mm
09:47 AM 65.4°F18.6°C 49.8°F9.9°C 57% 3.8 mph SW6.1 kmh SW 12.6 mph20.3 kmh 29.76 in1007.8 mb 0.00 in0.0 mm 0.00 in0.0 mm 0.00 in0.0 mm
09:45 AM 65.4°F18.6°C 49.8°F9.9°C 57% 6.4 mph S10.3 kmh S 12.6 mph20.3 kmh 29.76 in1007.8 mb 0.00 in0.0 mm 0.00 in0.0 mm 0.00 in0.0 mm
09:44 AM 65.2°F18.4°C 49.6°F9.8°C 57% 7.0 mph SSE11.3 kmh SSE 9.7 mph15.6 kmh 29.76 in1007.8 mb 0.00 in0.0 mm 0.00 in0.0 mm 0.00 in0.0 mm
09:43 AM 65.4°F18.6°C 49.8°F9.9°C 57% 4.8 mph SSW7.7 kmh SSW 9.7 mph15.6 kmh 29.79 in1008.8 mb 0.00 in0.0 mm 0.00 in0.0 mm 0.00 in0.0 mm
09:41 AM 65.4°F18.6°C 50.2°F10.1°C 58% 5.9 mph S9.5 kmh S 9.7 mph15.6 kmh 29.79 in1008.8 mb 0.00 in0.0 mm 0.00 in0.0 mm 0.00 in0.0 mm
09:40 AM 65.4°F18.6°C 51.2°F10.7°C 60% 6.4 mph S10.3 kmh S 10.5 mph16.9 kmh 29.79 in1008.8 mb 0.00 in0.0 mm 0.00 in0.0 mm 0.00 in0.0 mm
09:38 AM 65.4°F18.6°C 51.2°F10.7°C 60% 4.3 mph SSW6.9 kmh SSW 10.5 mph16.9 kmh 29.79 in1008.8 mb 0.00 in0.0 mm 0.00 in0.0 mm 0.00 in0.0 mm
09:37 AM 65.2°F18.4°C 51.4°F10.8°C 61% 7.0 mph SSE11.3 kmh SSE 10.5 mph16.9 kmh 29.79 in1008.8 mb 0.00 in0.0 mm 0.00 in0.0 mm 0.00 in0.0 mm
09:35 AM 65.0°F18.3°C 51.3°F10.7°C 61% 5.9 mph SSW9.5 kmh SSW 10.5 mph16.9 kmh 29.79 in1008.8 mb 0.00 in0.0 mm 0.00 in0.0 mm 0.00 in0.0 mm
09:34 AM 65.0°F18.3°C 51.7°F10.9°C 62% 4.3 mph S6.9 kmh S 10.5 mph16.9 kmh 29.79 in1008.8 mb 0.00 in0.0 mm 0.00 in0.0 mm 0.00 in0.0 mm
09:33 AM 64.8°F18.2°C 52.4°F11.3°C 64% 6.4 mph SSE10.3 kmh SSE 9.9 mph15.9 kmh 29.79 in1008.8 mb 0.00 in0.0 mm 0.00 in0.0 mm 0.00 in0.0 mm
09:31 AM 64.8°F18.2°C 53.2°F11.8°C 66% 7.0 mph S11.3 kmh S 9.9 mph15.9 kmh 29.79 in1008.8 mb 0.00 in0.0 mm 0.00 in0.0 mm 0.00 in0.0 mm
09:30 AM 64.8°F18.2°C 54.8°F12.7°C 70% 5.4 mph S8.7 kmh S 7.5 mph12.1 kmh 29.79 in1008.8 mb 0.00 in0.0 mm 0.00 in0.0 mm 0.00 in0.0 mm
09:29 AM 64.7°F18.2°C 55.1°F12.8°C 71% 4.3 mph SSW6.9 kmh SSW 7.5 mph12.1 kmh 29.79 in1008.8 mb 0.00 in0.0 mm 0.00 in0.0 mm 0.00 in0.0 mm
09:27 AM 64.7°F18.2°C 55.8°F13.2°C 73% 3.2 mph S5.1 kmh S 7.5 mph12.1 kmh 29.79 in1008.8 mb 0.00 in0.0 mm 0.00 in0.0 mm 0.00 in0.0 mm
09:26 AM 64.5°F18.1°C 57.1°F13.9°C 77% 6.4 mph S10.3 kmh S 12.1 mph19.5 kmh 29.79 in1008.8 mb 0.00 in0.0 mm 0.00 in0.0 mm 0.00 in0.0 mm
09:24 AM 64.5°F18.1°C 57.5°F14.2°C 78% 4.8 mph S7.7 kmh S 12.1 mph19.5 kmh 29.79 in1008.8 mb 0.00 in0.0 mm 0.00 in0.0 mm 0.00 in0.0 mm
09:23 AM 64.1°F17.8°C 57.5°F14.2°C 79% 3.2 mph S5.1 kmh S 12.1 mph19.5 kmh 29.79 in1008.8 mb 0.00 in0.0 mm 0.00 in0.0 mm 0.00 in0.0 mm
09:22 AM 63.9°F17.7°C 57.7°F14.3°C 80% 7.0 mph SW11.3 kmh SW 12.1 mph19.5 kmh 29.79 in1008.8 mb 0.00 in0.0 mm 0.00 in0.0 mm 0.00 in0.0 mm
09:21 AM 63.9°F17.7°C 58.0°F14.4°C 81% 7.0 mph SW11.3 kmh SW 12.1 mph19.5 kmh 29.79 in1008.8 mb 0.00 in0.0 mm 0.00 in0.0 mm 0.00 in0.0 mm
09:19 AM 63.4°F17.4°C 58.5°F14.7°C 84% 4.3 mph WSW6.9 kmh WSW 7.5 mph12.1 kmh 29.79 in1008.8 mb 0.00 in0.0 mm 0.00 in0.0 mm 0.00 in0.0 mm
09:18 AM 63.2°F17.3°C 58.6°F14.8°C 85% 7.5 mph SSE12.1 kmh SSE 7.5 mph12.1 kmh 29.79 in1008.8 mb 0.00 in0.0 mm 0.00 in0.0 mm 0.00 in0.0 mm
09:16 AM 62.9°F17.2°C 58.6°F14.8°C 86% 4.8 mph SSW7.7 kmh SSW 7.5 mph12.1 kmh 29.79 in1008.8 mb 0.00 in0.0 mm 0.00 in0.0 mm 0.00 in0.0 mm
09:15 AM 62.5°F16.9°C 58.3°F14.6°C 86% 5.4 mph S8.7 kmh S 7.5 mph12.1 kmh 29.79 in1008.8 mb 0.00 in0.0 mm 0.00 in0.0 mm 0.00 in0.0 mm
09:13 AM 62.5°F16.9°C 58.6°F14.8°C 87% 3.8 mph S6.1 kmh S 9.7 mph15.6 kmh 29.79 in1008.8 mb 0.00 in0.0 mm 0.00 in0.0 mm 0.00 in0.0 mm
09:12 AM 62.3°F16.8°C 58.4°F14.7°C 87% 3.8 mph SSW6.1 kmh SSW 9.7 mph15.6 kmh 29.79 in1008.8 mb 0.00 in0.0 mm 0.00 in0.0 mm 0.00 in0.0 mm
09:11 AM 62.1°F16.7°C 58.9°F14.9°C 89% 5.9 mph S9.5 kmh S 9.7 mph15.6 kmh 29.79 in1008.8 mb 0.00 in0.0 mm 0.00 in0.0 mm 0.00 in0.0 mm
09:09 AM 62.0°F16.7°C 59.3°F15.2°C 91% 4.8 mph SSE7.7 kmh SSE 9.7 mph15.6 kmh 29.79 in1008.8 mb 0.00 in0.0 mm 0.00 in0.0 mm 0.00 in0.0 mm
09:07 AM 62.0°F16.7°C 59.3°F15.2°C 91% 3.8 mph S6.1 kmh S 9.7 mph15.6 kmh 29.79 in1008.8 mb 0.00 in0.0 mm 0.00 in0.0 mm 0.00 in0.0 mm
09:06 AM 62.0°F16.7°C 59.6°F15.3°C 92% 9.7 mph S15.6 kmh S 9.7 mph15.6 kmh 29.79 in1008.8 mb 0.00 in0.0 mm 0.00 in0.0 mm 0.00 in0.0 mm
09:05 AM 61.6°F16.4°C 59.3°F15.2°C 92% 4.8 mph SE7.7 kmh SE 7.5 mph12.1 kmh 29.79 in1008.8 mb 0.00 in0.0 mm 0.00 in0.0 mm 0.00 in0.0 mm
09:04 AM 61.4°F16.3°C 59.4°F15.2°C 93% 4.3 mph SSE6.9 kmh SSE 7.5 mph12.1 kmh 29.79 in1008.8 mb 0.00 in0.0 mm 0.00 in0.0 mm 0.00 in0.0 mm
09:02 AM 61.2°F16.2°C 59.2°F15.1°C 93% 4.3 mph S6.9 kmh S 7.5 mph12.1 kmh 29.79 in1008.8 mb 0.00 in0.0 mm 0.00 in0.0 mm 0.00 in0.0 mm
09:01 AM 61.1°F16.2°C 59.0°F15.0°C 93% 3.2 mph SSW5.1 kmh SSW 10.5 mph16.9 kmh 29.79 in1008.8 mb 0.00 in0.0 mm 0.00 in0.0 mm 0.00 in0.0 mm
09:00 AM 61.1°F16.2°C 59.0°F15.0°C 93% 3.2 mph S5.1 kmh S 10.5 mph16.9 kmh 29.79 in1008.8 mb 0.00 in0.0 mm 0.00 in0.0 mm 0.00 in0.0 mm
08:59 AM 61.1°F16.2°C 59.3°F15.2°C 94% 4.8 mph SSW7.7 kmh SSW 10.5 mph16.9 kmh 29.79 in1008.8 mb 0.00 in0.0 mm 0.00 in0.0 mm 0.00 in0.0 mm
08:58 AM 60.9°F16.1°C 59.2°F15.1°C 94% 7.5 mph SSE12.1 kmh SSE 10.5 mph16.9 kmh 29.82 in1009.8 mb 0.00 in0.0 mm 0.00 in0.0 mm 0.00 in0.0 mm
08:56 AM 60.9°F16.1°C 59.2°F15.1°C 94% 5.9 mph S9.5 kmh S 10.5 mph16.9 kmh 29.82 in1009.8 mb 0.00 in0.0 mm 0.00 in0.0 mm 0.00 in0.0 mm
08:55 AM 60.9°F16.1°C 59.4°F15.2°C 95% 3.8 mph S6.1 kmh S 10.5 mph16.9 kmh 29.82 in1009.8 mb 0.00 in0.0 mm 0.00 in0.0 mm 0.00 in0.0 mm
08:53 AM 60.9°F16.1°C 59.4°F15.2°C 95% 8.1 mph S13.0 kmh S 8.6 mph13.8 kmh 29.82 in1009.8 mb 0.00 in0.0 mm 0.00 in0.0 mm 0.00 in0.0 mm
08:52 AM 60.7°F15.9°C 59.3°F15.2°C 95% 3.8 mph S6.1 kmh S 8.6 mph13.8 kmh 29.82 in1009.8 mb 0.00 in0.0 mm 0.00 in0.0 mm 0.00 in0.0 mm
08:51 AM 60.5°F15.8°C 59.1°F15.1°C 95% 3.2 mph S5.1 kmh S 8.6 mph13.8 kmh 29.82 in1009.8 mb 0.00 in0.0 mm 0.00 in0.0 mm 0.00 in0.0 mm
08:49 AM 60.3°F15.7°C 58.9°F14.9°C 95% 4.8 mph S7.7 kmh S 8.6 mph13.8 kmh 29.82 in1009.8 mb 0.00 in0.0 mm 0.00 in0.0 mm 0.00 in0.0 mm
08:48 AM 60.2°F15.7°C 59.0°F15.0°C 96% 5.9 mph SSW9.5 kmh SSW 8.6 mph13.8 kmh 29.82 in1009.8 mb 0.00 in0.0 mm 0.00 in0.0 mm 0.00 in0.0 mm
08:46 AM 60.0°F15.6°C 58.8°F14.9°C 96% Calm Calm 8.1 mph13.0 kmh 29.82 in1009.8 mb 0.00 in0.0 mm 0.00 in0.0 mm 0.00 in0.0 mm
08:45 AM 60.0°F15.6°C 58.8°F14.9°C 96% 3.8 mph S6.1 kmh S 8.1 mph13.0 kmh 29.82 in1009.8 mb 0.00 in0.0 mm 0.00 in0.0 mm 0.00 in0.0 mm
08:44 AM 59.8°F15.4°C 58.7°F14.8°C 96% 4.8 mph SSW7.7 kmh SSW 8.1 mph13.0 kmh 29.82 in1009.8 mb 0.00 in0.0 mm 0.00 in0.0 mm 0.00 in0.0 mm
08:42 AM 59.6°F15.3°C 58.5°F14.7°C 96% 4.8 mph SSE7.7 kmh SSE 8.1 mph13.0 kmh 29.82 in1009.8 mb 0.00 in0.0 mm 0.00 in0.0 mm 0.00 in0.0 mm
08:41 AM 59.6°F15.3°C 58.5°F14.7°C 96% 3.8 mph SSW6.1 kmh SSW 7.5 mph12.1 kmh 29.82 in1009.8 mb 0.00 in0.0 mm 0.00 in0.0 mm 0.00 in0.0 mm
08:40 AM 59.4°F15.2°C 58.3°F14.6°C 96% 4.3 mph SSW6.9 kmh SSW 7.5 mph12.1 kmh 29.82 in1009.8 mb 0.00 in0.0 mm 0.00 in0.0 mm 0.00 in0.0 mm
08:38 AM 59.4°F15.2°C 58.3°F14.6°C 96% 4.3 mph S6.9 kmh S 7.5 mph12.1 kmh 29.82 in1009.8 mb 0.00 in0.0 mm 0.00 in0.0 mm 0.00 in0.0 mm
08:37 AM 59.3°F15.2°C 58.4°F14.7°C 97% 7.5 mph SSW12.1 kmh SSW 7.5 mph12.1 kmh 29.82 in1009.8 mb 0.00 in0.0 mm 0.00 in0.0 mm 0.00 in0.0 mm
08:36 AM 59.3°F15.2°C 58.4°F14.7°C 97% 7.5 mph SW12.1 kmh SW 7.5 mph12.1 kmh 29.82 in1009.8 mb 0.00 in0.0 mm 0.00 in0.0 mm 0.00 in0.0 mm
08:34 AM 59.3°F15.2°C 58.4°F14.7°C 97% 4.8 mph SSW7.7 kmh SSW 7.5 mph12.1 kmh 29.82 in1009.8 mb 0.00 in0.0 mm 0.00 in0.0 mm 0.00 in0.0 mm
08:33 AM 59.3°F15.2°C 58.4°F14.7°C 97% 4.3 mph SW6.9 kmh SW 7.5 mph12.1 kmh 29.82 in1009.8 mb 0.00 in0.0 mm 0.00 in0.0 mm 0.00 in0.0 mm
08:31 AM 59.3°F15.2°C 58.4°F14.7°C 97% 3.8 mph SSW6.1 kmh SSW 8.6 mph13.8 kmh 29.82 in1009.8 mb 0.00 in0.0 mm 0.00 in0.0 mm 0.00 in0.0 mm
08:30 AM 59.3°F15.2°C 58.4°F14.7°C 97% 3.8 mph S6.1 kmh S 8.6 mph13.8 kmh 29.82 in1009.8 mb 0.00 in0.0 mm 0.00 in0.0 mm 0.00 in0.0 mm
08:28 AM 59.3°F15.2°C 58.4°F14.7°C 97% 4.3 mph S6.9 kmh S 8.6 mph13.8 kmh 29.82 in1009.8 mb 0.00 in0.0 mm 0.00 in0.0 mm 0.00 in0.0 mm
08:27 AM 59.3°F15.2°C 58.4°F14.7°C 97% 4.8 mph S7.7 kmh S 8.6 mph13.8 kmh 29.82 in1009.8 mb 0.00 in0.0 mm 0.00 in0.0 mm 0.00 in0.0 mm
08:25 AM 59.3°F15.2°C 58.7°F14.8°C 98% 3.2 mph S5.1 kmh S 8.6 mph13.8 kmh 29.82 in1009.8 mb 0.00 in0.0 mm 0.00 in0.0 mm 0.00 in0.0 mm
08:24 AM 59.3°F15.2°C 58.7°F14.8°C 98% 5.9 mph SW9.5 kmh SW 7.0 mph11.3 kmh 29.82 in1009.8 mb 0.00 in0.0 mm 0.00 in0.0 mm 0.00 in0.0 mm
08:23 AM 59.1°F15.1°C 58.5°F14.7°C 98% 3.2 mph SSW5.1 kmh SSW 4.8 mph7.7 kmh 29.82 in1009.8 mb 0.00 in0.0 mm 0.00 in0.0 mm 0.00 in0.0 mm
08:21 AM 58.7°F14.8°C 58.2°F14.6°C 98% Calm Calm 7.5 mph12.1 kmh 29.82 in1009.8 mb 0.00 in0.0 mm 0.00 in0.0 mm 0.00 in0.0 mm
08:20 AM 58.7°F14.8°C 58.2°F14.6°C 98% Calm Calm 7.5 mph12.1 kmh 29.82 in1009.8 mb 0.00 in0.0 mm 0.00 in0.0 mm 0.00 in0.0 mm
08:18 AM 58.7°F14.8°C 58.2°F14.6°C 98% Calm Calm 7.5 mph12.1 kmh 29.82 in1009.8 mb 0.00 in0.0 mm 0.00 in0.0 mm 0.00 in0.0 mm
08:17 AM 58.5°F14.7°C 58.0°F14.4°C 98% Calm Calm 7.5 mph12.1 kmh 29.82 in1009.8 mb 0.00 in0.0 mm 0.00 in0.0 mm 0.00 in0.0 mm
08:16 AM 58.4°F14.7°C 57.5°F14.2°C 97% 2.7 mph S4.3 kmh S 7.5 mph12.1 kmh 29.82 in1009.8 mb 0.00 in0.0 mm 0.00 in0.0 mm 0.00 in0.0 mm
08:15 AM 58.4°F14.7°C 57.5°F14.2°C 97% 7.5 mph S12.1 kmh S 7.5 mph12.1 kmh 29.82 in1009.8 mb 0.00 in0.0 mm 0.00 in0.0 mm 0.00 in0.0 mm
08:14 AM 58.2°F14.6°C 57.3°F14.1°C 97% 3.2 mph SSW5.1 kmh SSW 7.5 mph12.1 kmh 29.82 in1009.8 mb 0.00 in0.0 mm 0.00 in0.0 mm 0.00 in0.0 mm
08:13 AM 58.2°F14.6°C 57.3°F14.1°C 97% 4.3 mph S6.9 kmh S 7.5 mph12.1 kmh 29.82 in1009.8 mb 0.00 in0.0 mm 0.00 in0.0 mm 0.00 in0.0 mm
08:12 AM 58.2°F14.6°C 57.3°F14.1°C 97% 4.8 mph S7.7 kmh S 7.5 mph12.1 kmh 29.82 in1009.8 mb 0.00 in0.0 mm 0.00 in0.0 mm 0.00 in0.0 mm
08:10 AM 58.0°F14.4°C 57.2°F14.0°C 97% 6.4 mph SW10.3 kmh SW 7.5 mph12.1 kmh 29.82 in1009.8 mb 0.00 in0.0 mm 0.00 in0.0 mm 0.00 in0.0 mm
08:09 AM 57.8°F14.3°C 57.3°F14.1°C 98% 7.5 mph SSE12.1 kmh SSE 7.5 mph12.1 kmh 29.82 in1009.8 mb 0.00 in0.0 mm 0.00 in0.0 mm 0.00 in0.0 mm
08:07 AM 57.8°F14.3°C 57.3°F14.1°C 98% 4.8 mph SSE7.7 kmh SSE 7.5 mph12.1 kmh 29.82 in1009.8 mb 0.00 in0.0 mm 0.00 in0.0 mm 0.00 in0.0 mm
08:06 AM 57.6°F14.2°C 56.8°F13.8°C 97% 3.2 mph S5.1 kmh S 7.5 mph12.1 kmh 29.82 in1009.8 mb 0.00 in0.0 mm 0.00 in0.0 mm 0.00 in0.0 mm
08:04 AM 57.6°F14.2°C 56.8°F13.8°C 97% 4.3 mph SSW6.9 kmh SSW 7.5 mph12.1 kmh 29.82 in1009.8 mb 0.00 in0.0 mm 0.00 in0.0 mm 0.00 in0.0 mm
08:03 AM 57.6°F14.2°C 56.8°F13.8°C 97% 3.2 mph SE5.1 kmh SE 7.5 mph12.1 kmh 29.82 in1009.8 mb 0.00 in0.0 mm 0.00 in0.0 mm 0.00 in0.0 mm
08:02 AM 57.6°F14.2°C 56.8°F13.8°C 97% 6.4 mph SSE10.3 kmh SSE 7.5 mph12.1 kmh 29.82 in1009.8 mb 0.00 in0.0 mm 0.00 in0.0 mm 0.00 in0.0 mm
08:00 AM 57.5°F14.2°C 56.6°F13.7°C 97% 4.8 mph S7.7 kmh S 9.1 mph14.6 kmh 29.82 in1009.8 mb 0.00 in0.0 mm 0.00 in0.0 mm 0.00 in0.0 mm
07:59 AM 57.5°F14.2°C 56.6°F13.7°C 97% 4.8 mph SSE7.7 kmh SSE 9.1 mph14.6 kmh 29.82 in1009.8 mb 0.00 in0.0 mm 0.00 in0.0 mm 0.00 in0.0 mm
07:57 AM 57.5°F14.2°C 56.6°F13.7°C 97% 3.2 mph S5.1 kmh S 9.1 mph14.6 kmh 29.82 in1009.8 mb 0.00 in0.0 mm 0.00 in0.0 mm 0.00 in0.0 mm
07:56 AM 57.5°F14.2°C 56.6°F13.7°C 97% 4.8 mph SSW7.7 kmh SSW 9.1 mph14.6 kmh 29.82 in1009.8 mb 0.00 in0.0 mm 0.00 in0.0 mm 0.00 in0.0 mm
07:55 AM 57.5°F14.2°C 56.6°F13.7°C 97% 3.8 mph SSW6.1 kmh SSW 9.1 mph14.6 kmh 29.82 in1009.8 mb 0.00 in0.0 mm 0.00 in0.0 mm 0.00 in0.0 mm
07:54 AM 57.5°F14.2°C 56.6°F13.7°C 97% 6.4 mph S10.3 kmh S 7.5 mph12.1 kmh 29.82 in1009.8 mb 0.00 in0.0 mm 0.00 in0.0 mm 0.00 in0.0 mm
07:52 AM 57.5°F14.2°C 56.6°F13.7°C 97% 4.3 mph S6.9 kmh S 7.0 mph11.3 kmh 29.82 in1009.8 mb 0.00 in0.0 mm 0.00 in0.0 mm 0.00 in0.0 mm
07:50 AM 57.5°F14.2°C 56.6°F13.7°C 97% Calm Calm 7.0 mph11.3 kmh 29.82 in1009.8 mb 0.00 in0.0 mm 0.00 in0.0 mm 0.00 in0.0 mm
07:49 AM 57.5°F14.2°C 56.6°F13.7°C 97% Calm Calm 7.5 mph12.1 kmh 29.82 in1009.8 mb 0.00 in0.0 mm 0.00 in0.0 mm 0.00 in0.0 mm
07:48 AM 57.5°F14.2°C 56.6°F13.7°C 97% 4.3 mph S6.9 kmh S 7.5 mph12.1 kmh 29.82 in1009.8 mb 0.00 in0.0 mm 0.00 in0.0 mm 0.00 in0.0 mm
07:46 AM 57.5°F14.2°C 56.6°F13.7°C 97% 6.4 mph S10.3 kmh S 7.5 mph12.1 kmh 29.82 in1009.8 mb 0.00 in0.0 mm 0.00 in0.0 mm 0.00 in0.0 mm
07:45 AM 57.5°F14.2°C 56.6°F13.7°C 97% 4.8 mph S7.7 kmh S 7.5 mph12.1 kmh 29.82 in1009.8 mb 0.00 in0.0 mm 0.00 in0.0 mm 0.00 in0.0 mm
07:43 AM 57.3°F14.1°C 56.4°F13.6°C 97% 7.5 mph S12.1 kmh S 7.5 mph12.1 kmh 29.82 in1009.8 mb 0.00 in0.0 mm 0.00 in0.0 mm 0.00 in0.0 mm
07:41 AM 57.3°F14.1°C 56.4°F13.6°C 97% 3.2 mph SSW5.1 kmh SSW 9.7 mph15.6 kmh 29.82 in1009.8 mb 0.00 in0.0 mm 0.00 in0.0 mm 0.00 in0.0 mm
07:39 AM 57.3°F14.1°C 56.4°F13.6°C 97% 5.9 mph SSW9.5 kmh SSW 9.7 mph15.6 kmh 29.82 in1009.8 mb 0.00 in0.0 mm 0.00 in0.0 mm 0.00 in0.0 mm
07:38 AM 57.3°F14.1°C 56.4°F13.6°C 97% 6.4 mph SW10.3 kmh SW 9.7 mph15.6 kmh 29.82 in1009.8 mb 0.00 in0.0 mm 0.00 in0.0 mm 0.00 in0.0 mm
07:36 AM 57.3°F14.1°C 56.4°F13.6°C 97% 4.3 mph S6.9 kmh S 9.7 mph15.6 kmh 29.82 in1009.8 mb 0.00 in0.0 mm 0.00 in0.0 mm 0.00 in0.0 mm
07:34 AM 57.3°F14.1°C 56.4°F13.6°C 97% Calm Calm 7.5 mph12.1 kmh 29.82 in1009.8 mb 0.00 in0.0 mm 0.00 in0.0 mm 0.00 in0.0 mm
07:32 AM 57.3°F14.1°C 56.4°F13.6°C 97% 2.7 mph SE4.3 kmh SE 7.5 mph12.1 kmh 29.82 in1009.8 mb 0.00 in0.0 mm 0.00 in0.0 mm 0.00 in0.0 mm
07:31 AM 57.3°F14.1°C 56.4°F13.6°C 97% 4.3 mph SSW6.9 kmh SSW 7.5 mph12.1 kmh 29.82 in1009.8 mb 0.00 in0.0 mm 0.00 in0.0 mm 0.00 in0.0 mm
07:30 AM 57.3°F14.1°C 56.4°F13.6°C 97% 4.8 mph S7.7 kmh S 7.5 mph12.1 kmh 29.82 in1009.8 mb 0.00 in0.0 mm 0.00 in0.0 mm 0.00 in0.0 mm
07:28 AM 57.3°F14.1°C 56.7°F13.7°C 98% 7.0 mph S11.3 kmh S 7.0 mph11.3 kmh 29.82 in1009.8 mb 0.00 in0.0 mm 0.00 in0.0 mm 0.00 in0.0 mm
07:27 AM 57.3°F14.1°C 56.7°F13.7°C 98% 4.3 mph S6.9 kmh S 6.4 mph10.3 kmh 29.82 in1009.8 mb 0.00 in0.0 mm 0.00 in0.0 mm 0.00 in0.0 mm
07:25 AM 57.1°F13.9°C 56.3°F13.5°C 97% Calm Calm 5.9 mph9.5 kmh 29.82 in1009.8 mb 0.00 in0.0 mm 0.00 in0.0 mm 0.00 in0.0 mm
07:24 AM 57.1°F13.9°C 56.3°F13.5°C 97% 4.3 mph S6.9 kmh S 5.9 mph9.5 kmh 29.82 in1009.8 mb 0.00 in0.0 mm 0.00 in0.0 mm 0.00 in0.0 mm
07:22 AM 57.1°F13.9°C 56.3°F13.5°C 97% 3.8 mph S6.1 kmh S 5.9 mph9.5 kmh 29.82 in1009.8 mb 0.00 in0.0 mm 0.00 in0.0 mm 0.00 in0.0 mm
07:20 AM 57.1°F13.9°C 56.3°F13.5°C 97% 3.2 mph S5.1 kmh S 6.4 mph10.3 kmh 29.82 in1009.8 mb 0.00 in0.0 mm 0.00 in0.0 mm 0.00 in0.0 mm
07:18 AM 57.1°F13.9°C 56.5°F13.6°C 98% 3.8 mph S6.1 kmh S 6.4 mph10.3 kmh 29.82 in1009.8 mb 0.00 in0.0 mm 0.00 in0.0 mm 0.00 in0.0 mm
07:17 AM 57.1°F13.9°C 56.5°F13.6°C 98% 3.8 mph S6.1 kmh S 6.4 mph10.3 kmh 29.82 in1009.8 mb 0.00 in0.0 mm 0.00 in0.0 mm 0.00 in0.0 mm
07:16 AM 57.1°F13.9°C 56.5°F13.6°C 98% 3.8 mph SSW6.1 kmh SSW 6.4 mph10.3 kmh 29.82 in1009.8 mb 0.00 in0.0 mm 0.00 in0.0 mm 0.00 in0.0 mm
07:14 AM 57.1°F13.9°C 56.3°F13.5°C 97% 3.8 mph SSE6.1 kmh SSE 6.4 mph10.3 kmh 29.82 in1009.8 mb 0.00 in0.0 mm 0.00 in0.0 mm 0.00 in0.0 mm
07:13 AM 57.1°F13.9°C 56.5°F13.6°C 98% Calm Calm 4.3 mph6.9 kmh 29.82 in1009.8 mb 0.00 in0.0 mm 0.00 in0.0 mm 0.00 in0.0 mm
07:11 AM 57.1°F13.9°C 56.3°F13.5°C 97% Calm Calm 4.3 mph6.9 kmh 29.82 in1009.8 mb 0.00 in0.0 mm 0.00 in0.0 mm 0.00 in0.0 mm
07:10 AM 57.1°F13.9°C 56.3°F13.5°C 97% Calm Calm 4.3 mph6.9 kmh 29.82 in1009.8 mb 0.00 in0.0 mm 0.00 in0.0 mm 0.00 in0.0 mm
07:09 AM 57.1°F13.9°C 56.3°F13.5°C 97% Calm Calm 4.3 mph6.9 kmh 29.82 in1009.8 mb 0.00 in0.0 mm 0.00 in0.0 mm 0.00 in0.0 mm
07:07 AM 57.1°F13.9°C 56.3°F13.5°C 97% 4.3 mph S6.9 kmh S 6.4 mph10.3 kmh 29.82 in1009.8 mb 0.00 in0.0 mm 0.00 in0.0 mm 0.00 in0.0 mm
07:06 AM 57.1°F13.9°C 56.3°F13.5°C 97% Calm Calm 6.4 mph10.3 kmh 29.82 in1009.8 mb 0.00 in0.0 mm 0.00 in0.0 mm 0.00 in0.0 mm
07:05 AM 57.1°F13.9°C 56.3°F13.5°C 97% Calm Calm 6.4 mph10.3 kmh 29.82 in1009.8 mb 0.00 in0.0 mm 0.00 in0.0 mm 0.00 in0.0 mm
07:03 AM 57.1°F13.9°C 56.3°F13.5°C 97% Calm Calm 6.4 mph10.3 kmh 29.82 in1009.8 mb 0.00 in0.0 mm 0.00 in0.0 mm 0.00 in0.0 mm
07:01 AM 57.1°F13.9°C 56.3°F13.5°C 97% Calm Calm 3.8 mph6.1 kmh 29.82 in1009.8 mb 0.00 in0.0 mm 0.00 in0.0 mm 0.00 in0.0 mm
06:59 AM 57.1°F13.9°C 56.3°F13.5°C 97% Calm Calm 3.8 mph6.1 kmh 29.82 in1009.8 mb 0.00 in0.0 mm 0.00 in0.0 mm 0.00 in0.0 mm
06:58 AM 57.1°F13.9°C 56.3°F13.5°C 97% Calm Calm 3.8 mph6.1 kmh 29.82 in1009.8 mb 0.00 in0.0 mm 0.00 in0.0 mm 0.00 in0.0 mm
06:56 AM 57.1°F13.9°C 56.5°F13.6°C 98% Calm Calm 4.3 mph6.9 kmh 29.82 in1009.8 mb 0.00 in0.0 mm 0.00 in0.0 mm 0.00 in0.0 mm
06:54 AM 57.1°F13.9°C 56.5°F13.6°C 98% 3.2 mph S5.1 kmh S 4.3 mph6.9 kmh 29.82 in1009.8 mb 0.00 in0.0 mm 0.00 in0.0 mm 0.00 in0.0 mm
06:53 AM 57.1°F13.9°C 56.5°F13.6°C 98% Calm Calm 4.3 mph6.9 kmh 29.82 in1009.8 mb 0.00 in0.0 mm 0.00 in0.0 mm 0.00 in0.0 mm
06:52 AM 57.1°F13.9°C 56.5°F13.6°C 98% Calm Calm 4.3 mph6.9 kmh 29.82 in1009.8 mb 0.00 in0.0 mm 0.00 in0.0 mm 0.00 in0.0 mm
06:50 AM 57.1°F13.9°C 56.5°F13.6°C 98% Calm Calm 4.3 mph6.9 kmh 29.82 in1009.8 mb 0.00 in0.0 mm 0.00 in0.0 mm 0.00 in0.0 mm
06:49 AM 57.1°F13.9°C 56.5°F13.6°C 98% 3.2 mph S5.1 kmh S 6.4 mph10.3 kmh 29.82 in1009.8 mb 0.00 in0.0 mm 0.00 in0.0 mm 0.00 in0.0 mm
06:47 AM 57.1°F13.9°C 56.5°F13.6°C 98% 2.7 mph SSW4.3 kmh SSW 6.4 mph10.3 kmh 29.82 in1009.8 mb 0.00 in0.0 mm 0.00 in0.0 mm 0.00 in0.0 mm
06:46 AM 57.1°F13.9°C 56.5°F13.6°C 98% 3.8 mph SE6.1 kmh SE 6.4 mph10.3 kmh 29.82 in1009.8 mb 0.00 in0.0 mm 0.00 in0.0 mm 0.00 in0.0 mm
06:45 AM 57.1°F13.9°C 56.5°F13.6°C 98% 3.2 mph S5.1 kmh S 6.4 mph10.3 kmh 29.82 in1009.8 mb 0.00 in0.0 mm 0.00 in0.0 mm 0.00 in0.0 mm
06:43 AM 57.1°F13.9°C 56.5°F13.6°C 98% Calm Calm 6.4 mph10.3 kmh 29.85 in1010.8 mb 0.00 in0.0 mm 0.00 in0.0 mm 0.00 in0.0 mm
06:42 AM 57.1°F13.9°C 56.5°F13.6°C 98% 3.2 mph SSW5.1 kmh SSW 7.5 mph12.1 kmh 29.85 in1010.8 mb 0.00 in0.0 mm 0.00 in0.0 mm 0.00 in0.0 mm
06:40 AM 57.1°F13.9°C 56.3°F13.5°C 97% 3.2 mph S5.1 kmh S 7.5 mph12.1 kmh 29.85 in1010.8 mb 0.00 in0.0 mm 0.00 in0.0 mm 0.00 in0.0 mm
06:39 AM 57.1°F13.9°C 56.3°F13.5°C 97% 4.8 mph S7.7 kmh S 7.5 mph12.1 kmh 29.85 in1010.8 mb 0.00 in0.0 mm 0.00 in0.0 mm 0.00 in0.0 mm
06:38 AM 57.1°F13.9°C 56.3°F13.5°C 97% Calm Calm 7.5 mph12.1 kmh 29.85 in1010.8 mb 0.00 in0.0 mm 0.00 in0.0 mm 0.00 in0.0 mm
06:36 AM 57.1°F13.9°C 56.3°F13.5°C 97% 3.8 mph S6.1 kmh S 7.5 mph12.1 kmh 29.85 in1010.8 mb 0.00 in0.0 mm 0.00 in0.0 mm 0.00 in0.0 mm
06:35 AM 57.1°F13.9°C 56.3°F13.5°C 97% 4.8 mph SSE7.7 kmh SSE 4.8 mph7.7 kmh 29.85 in1010.8 mb 0.00 in0.0 mm 0.00 in0.0 mm 0.00 in0.0 mm
06:33 AM 57.1°F13.9°C 56.3°F13.5°C 97% Calm Calm 5.9 mph9.5 kmh 29.85 in1010.8 mb 0.00 in0.0 mm 0.00 in0.0 mm 0.00 in0.0 mm
06:32 AM 57.1°F13.9°C 56.3°F13.5°C 97% 3.2 mph S5.1 kmh S 5.9 mph9.5 kmh 29.85 in1010.8 mb 0.00 in0.0 mm 0.00 in0.0 mm 0.00 in0.0 mm
06:31 AM 57.1°F13.9°C 56.3°F13.5°C 97% Calm Calm 5.9 mph9.5 kmh 29.85 in1010.8 mb 0.00 in0.0 mm 0.00 in0.0 mm 0.00 in0.0 mm
06:29 AM 57.1°F13.9°C 56.3°F13.5°C 97% 4.8 mph S7.7 kmh S 5.9 mph9.5 kmh 29.85 in1010.8 mb 0.00 in0.0 mm 0.00 in0.0 mm 0.00 in0.0 mm
06:28 AM 57.1°F13.9°C 56.3°F13.5°C 97% Calm Calm 5.9 mph9.5 kmh 29.85 in1010.8 mb 0.00 in0.0 mm 0.00 in0.0 mm 0.00 in0.0 mm
06:27 AM 57.1°F13.9°C 56.3°F13.5°C 97% 4.3 mph S6.9 kmh S 4.8 mph7.7 kmh 29.85 in1010.8 mb 0.00 in0.0 mm 0.00 in0.0 mm 0.00 in0.0 mm
06:25 AM 57.1°F13.9°C 56.3°F13.5°C 97% 4.3 mph SSW6.9 kmh SSW 4.8 mph7.7 kmh 29.85 in1010.8 mb 0.00 in0.0 mm 0.00 in0.0 mm 0.00 in0.0 mm
06:24 AM 57.1°F13.9°C 56.3°F13.5°C 97% 4.3 mph S6.9 kmh S 4.8 mph7.7 kmh 29.85 in1010.8 mb 0.00 in0.0 mm 0.00 in0.0 mm 0.00 in0.0 mm
06:22 AM 57.1°F13.9°C 56.3°F13.5°C 97% 3.8 mph S6.1 kmh S 5.9 mph9.5 kmh 29.85 in1010.8 mb 0.00 in0.0 mm 0.00 in0.0 mm 0.00 in0.0 mm
06:21 AM 57.1°F13.9°C 56.3°F13.5°C 97% 3.8 mph SE6.1 kmh SE 5.9 mph9.5 kmh 29.85 in1010.8 mb 0.00 in0.0 mm 0.00 in0.0 mm 0.00 in0.0 mm
06:20 AM 57.1°F13.9°C 56.3°F13.5°C 97% Calm Calm 5.9 mph9.5 kmh 29.85 in1010.8 mb 0.00 in0.0 mm 0.00 in0.0 mm 0.00 in0.0 mm
06:18 AM 57.1°F13.9°C 56.3°F13.5°C 97% 2.7 mph S4.3 kmh S 5.9 mph9.5 kmh 29.85 in1010.8 mb 0.00 in0.0 mm 0.00 in0.0 mm 0.00 in0.0 mm
06:17 AM 57.1°F13.9°C 56.3°F13.5°C 97% 3.8 mph S6.1 kmh S 5.9 mph9.5 kmh 29.85 in1010.8 mb 0.00 in0.0 mm 0.00 in0.0 mm 0.00 in0.0 mm
06:16 AM 57.1°F13.9°C 56.3°F13.5°C 97% Calm Calm 5.9 mph9.5 kmh 29.85 in1010.8 mb 0.00 in0.0 mm 0.00 in0.0 mm 0.00 in0.0 mm
06:14 AM 57.1°F13.9°C 56.3°F13.5°C 97% 5.4 mph SSW8.7 kmh SSW 5.9 mph9.5 kmh 29.85 in1010.8 mb 0.00 in0.0 mm 0.00 in0.0 mm 0.00 in0.0 mm
06:12 AM 57.1°F13.9°C 56.3°F13.5°C 97% 2.7 mph S4.3 kmh S 5.9 mph9.5 kmh 29.85 in1010.8 mb 0.00 in0.0 mm 0.00 in0.0 mm 0.00 in0.0 mm
06:11 AM 57.1°F13.9°C 56.3°F13.5°C 97% 3.8 mph S6.1 kmh S 5.9 mph9.5 kmh 29.85 in1010.8 mb 0.00 in0.0 mm 0.00 in0.0 mm 0.00 in0.0 mm
06:10 AM 56.9°F13.8°C 56.1°F13.4°C 97% Calm Calm -- 29.85 in1010.8 mb 0.00 in0.0 mm 0.00 in0.0 mm 0.00 in0.0 mm
06:08 AM 57.1°F13.9°C 56.3°F13.5°C 97% Calm Calm 4.8 mph7.7 kmh 29.85 in1010.8 mb 0.00 in0.0 mm 0.00 in0.0 mm 0.00 in0.0 mm
06:07 AM 57.1°F13.9°C 56.3°F13.5°C 97% Calm Calm 4.8 mph7.7 kmh 29.85 in1010.8 mb 0.00 in0.0 mm 0.00 in0.0 mm 0.00 in0.0 mm
06:05 AM 57.1°F13.9°C 56.3°F13.5°C 97% Calm Calm 4.8 mph7.7 kmh 29.85 in1010.8 mb 0.00 in0.0 mm 0.00 in0.0 mm 0.00 in0.0 mm
06:04 AM 57.1°F13.9°C 56.3°F13.5°C 97% Calm Calm 4.8 mph7.7 kmh 29.85 in1010.8 mb 0.00 in0.0 mm 0.00 in0.0 mm 0.00 in0.0 mm
06:03 AM 57.1°F13.9°C 56.3°F13.5°C 97% Calm Calm 4.8 mph7.7 kmh 29.85 in1010.8 mb 0.00 in0.0 mm 0.00 in0.0 mm 0.00 in0.0 mm
06:01 AM 57.1°F13.9°C 56.3°F13.5°C 97% 3.8 mph SW6.1 kmh SW 6.4 mph10.3 kmh 29.85 in1010.8 mb 0.00 in0.0 mm 0.00 in0.0 mm 0.00 in0.0 mm
06:00 AM 57.1°F13.9°C 56.3°F13.5°C 97% 3.2 mph SSW5.1 kmh SSW 6.4 mph10.3 kmh 29.85 in1010.8 mb 0.00 in0.0 mm 0.00 in0.0 mm 0.00 in0.0 mm
05:58 AM 57.1°F13.9°C 56.3°F13.5°C 97% 3.2 mph SSE5.1 kmh SSE 6.4 mph10.3 kmh 29.85 in1010.8 mb 0.00 in0.0 mm 0.00 in0.0 mm 0.00 in0.0 mm
05:57 AM 56.9°F13.8°C 56.1°F13.4°C 97% 3.8 mph S6.1 kmh S 6.4 mph10.3 kmh 29.85 in1010.8 mb 0.00 in0.0 mm 0.00 in0.0 mm 0.00 in0.0 mm
05:56 AM 56.9°F13.8°C 56.1°F13.4°C 97% 4.3 mph S6.9 kmh S 7.0 mph11.3 kmh 29.85 in1010.8 mb 0.00 in0.0 mm 0.00 in0.0 mm 0.00 in0.0 mm
05:55 AM 56.9°F13.8°C 56.1°F13.4°C 97% 3.2 mph S5.1 kmh S 7.0 mph11.3 kmh 29.85 in1010.8 mb 0.00 in0.0 mm 0.00 in0.0 mm 0.00 in0.0 mm
05:53 AM 56.9°F13.8°C 56.1°F13.4°C 97% 4.8 mph SSE7.7 kmh SSE 7.0 mph11.3 kmh 29.85 in1010.8 mb 0.00 in0.0 mm 0.00 in0.0 mm 0.00 in0.0 mm
05:51 AM 56.9°F13.8°C 56.1°F13.4°C 97% 3.8 mph S6.1 kmh S 7.0 mph11.3 kmh 29.85 in1010.8 mb 0.00 in0.0 mm 0.00 in0.0 mm 0.00 in0.0 mm
05:50 AM 56.9°F13.8°C 56.1°F13.4°C 97% 3.2 mph S5.1 kmh S 7.0 mph11.3 kmh 29.85 in1010.8 mb 0.00 in0.0 mm 0.00 in0.0 mm 0.00 in0.0 mm
05:49 AM 56.9°F13.8°C 56.1°F13.4°C 97% Calm Calm 4.8 mph7.7 kmh 29.85 in1010.8 mb 0.00 in0.0 mm 0.00 in0.0 mm 0.00 in0.0 mm
05:47 AM 56.9°F13.8°C 56.1°F13.4°C 97% 4.8 mph SSW7.7 kmh SSW 4.8 mph7.7 kmh 29.85 in1010.8 mb 0.00 in0.0 mm 0.00 in0.0 mm 0.00 in0.0 mm
05:46 AM 56.9°F13.8°C 56.1°F13.4°C 97% 3.2 mph SSE5.1 kmh SSE 4.8 mph7.7 kmh 29.85 in1010.8 mb 0.00 in0.0 mm 0.00 in0.0 mm 0.00 in0.0 mm
05:45 AM 56.7°F13.7°C 55.9°F13.3°C 97% Calm Calm 4.3 mph6.9 kmh 29.85 in1010.8 mb 0.00 in0.0 mm 0.00 in0.0 mm 0.00 in0.0 mm
05:43 AM 56.7°F13.7°C 55.9°F13.3°C 97% Calm Calm 4.8 mph7.7 kmh 29.85 in1010.8 mb 0.00 in0.0 mm 0.00 in0.0 mm 0.00 in0.0 mm
05:42 AM 56.7°F13.7°C 55.9°F13.3°C 97% Calm Calm 4.8 mph7.7 kmh 29.85 in1010.8 mb 0.00 in0.0 mm 0.00 in0.0 mm 0.00 in0.0 mm
05:40 AM 56.7°F13.7°C 55.9°F13.3°C 97% 3.8 mph SSW6.1 kmh SSW 4.8 mph7.7 kmh 29.85 in1010.8 mb 0.00 in0.0 mm 0.00 in0.0 mm 0.00 in0.0 mm
05:39 AM 56.7°F13.7°C 55.9°F13.3°C 97% Calm Calm 4.8 mph7.7 kmh 29.85 in1010.8 mb 0.00 in0.0 mm 0.00 in0.0 mm 0.00 in0.0 mm
05:37 AM 56.7°F13.7°C 55.9°F13.3°C 97% 3.8 mph SSE6.1 kmh SSE 6.4 mph10.3 kmh 29.85 in1010.8 mb 0.00 in0.0 mm 0.00 in0.0 mm 0.00 in0.0 mm
05:36 AM 56.7°F13.7°C 55.9°F13.3°C 97% 4.8 mph S7.7 kmh S 6.4 mph10.3 kmh 29.85 in1010.8 mb 0.00 in0.0 mm 0.00 in0.0 mm 0.00 in0.0 mm
05:35 AM 56.7°F13.7°C 55.9°F13.3°C 97% Calm Calm 6.4 mph10.3 kmh 29.85 in1010.8 mb 0.00 in0.0 mm 0.00 in0.0 mm 0.00 in0.0 mm
05:33 AM 56.7°F13.7°C 55.9°F13.3°C 97% 4.3 mph SSW6.9 kmh SSW 6.4 mph10.3 kmh 29.85 in1010.8 mb 0.00 in0.0 mm 0.00 in0.0 mm 0.00 in0.0 mm
05:32 AM 56.7°F13.7°C 55.9°F13.3°C 97% 2.7 mph S4.3 kmh S 6.4 mph10.3 kmh 29.85 in1010.8 mb 0.00 in0.0 mm 0.00 in0.0 mm 0.00 in0.0 mm
05:31 AM 56.7°F13.7°C 55.9°F13.3°C 97% 3.2 mph S5.1 kmh S 4.8 mph7.7 kmh 29.85 in1010.8 mb 0.00 in0.0 mm 0.00 in0.0 mm 0.00 in0.0 mm
05:30 AM 56.7°F13.7°C 55.9°F13.3°C 97% 4.3 mph S6.9 kmh S 5.9 mph9.5 kmh 29.85 in1010.8 mb 0.00 in0.0 mm 0.00 in0.0 mm 0.00 in0.0 mm
05:28 AM 56.7°F13.7°C 55.9°F13.3°C 97% 2.7 mph SSW4.3 kmh SSW 5.9 mph9.5 kmh 29.85 in1010.8 mb 0.00 in0.0 mm 0.00 in0.0 mm 0.00 in0.0 mm
05:26 AM 56.7°F13.7°C 55.9°F13.3°C 97% 4.8 mph S7.7 kmh S 5.9 mph9.5 kmh 29.85 in1010.8 mb 0.00 in0.0 mm 0.00 in0.0 mm 0.00 in0.0 mm
05:25 AM 56.7°F13.7°C 55.9°F13.3°C 97% 3.8 mph SSE6.1 kmh SSE 5.9 mph9.5 kmh 29.85 in1010.8 mb 0.00 in0.0 mm 0.00 in0.0 mm 0.00 in0.0 mm
05:23 AM 56.7°F13.7°C 55.9°F13.3°C 97% 3.8 mph S6.1 kmh S 5.9 mph9.5 kmh 29.85 in1010.8 mb 0.00 in0.0 mm 0.00 in0.0 mm 0.00 in0.0 mm
05:21 AM 56.7°F13.7°C 55.9°F13.3°C 97% 3.8 mph S6.1 kmh S 4.8 mph7.7 kmh 29.85 in1010.8 mb 0.00 in0.0 mm 0.00 in0.0 mm 0.00 in0.0 mm
05:19 AM 56.7°F13.7°C 55.9°F13.3°C 97% 3.2 mph S5.1 kmh S 4.8 mph7.7 kmh 29.85 in1010.8 mb 0.00 in0.0 mm 0.00 in0.0 mm 0.00 in0.0 mm
05:18 AM 56.7°F13.7°C 55.9°F13.3°C 97% Calm Calm 4.8 mph7.7 kmh 29.85 in1010.8 mb 0.00 in0.0 mm 0.00 in0.0 mm 0.00 in0.0 mm
05:16 AM 56.7°F13.7°C 55.9°F13.3°C 97% 3.8 mph S6.1 kmh S 4.8 mph7.7 kmh 29.85 in1010.8 mb 0.00 in0.0 mm 0.00 in0.0 mm 0.00 in0.0 mm
05:15 AM 56.7°F13.7°C 55.9°F13.3°C 97% 4.3 mph SSW6.9 kmh SSW 4.8 mph7.7 kmh 29.85 in1010.8 mb 0.00 in0.0 mm 0.00 in0.0 mm 0.00 in0.0 mm
05:14 AM 56.7°F13.7°C 55.9°F13.3°C 97% Calm Calm 4.8 mph7.7 kmh 29.85 in1010.8 mb 0.00 in0.0 mm 0.00 in0.0 mm 0.00 in0.0 mm
05:12 AM 56.7°F13.7°C 55.9°F13.3°C 97% Calm Calm 4.8 mph7.7 kmh 29.85 in1010.8 mb 0.00 in0.0 mm 0.00 in0.0 mm 0.00 in0.0 mm
05:11 AM 56.7°F13.7°C 55.6°F13.1°C 96% Calm Calm 4.3 mph6.9 kmh 29.85 in1010.8 mb 0.00 in0.0 mm 0.00 in0.0 mm 0.00 in0.0 mm
05:10 AM 56.7°F13.7°C 55.6°F13.1°C 96% Calm Calm 4.3 mph6.9 kmh 29.85 in1010.8 mb 0.00 in0.0 mm 0.00 in0.0 mm 0.00 in0.0 mm
05:08 AM 56.6°F13.7°C 55.4°F13.0°C 96% Calm Calm 4.3 mph6.9 kmh 29.85 in1010.8 mb 0.00 in0.0 mm 0.00 in0.0 mm 0.00 in0.0 mm
05:07 AM 56.7°F13.7°C 55.6°F13.1°C 96% 4.3 mph S6.9 kmh S 4.3 mph6.9 kmh 29.85 in1010.8 mb 0.00 in0.0 mm 0.00 in0.0 mm 0.00 in0.0 mm
05:05 AM 56.7°F13.7°C 55.6°F13.1°C 96% 2.7 mph SSW4.3 kmh SSW 4.8 mph7.7 kmh 29.85 in1010.8 mb 0.00 in0.0 mm 0.00 in0.0 mm 0.00 in0.0 mm
05:04 AM 56.7°F13.7°C 55.6°F13.1°C 96% Calm Calm 4.8 mph7.7 kmh 29.85 in1010.8 mb 0.00 in0.0 mm 0.00 in0.0 mm 0.00 in0.0 mm
05:02 AM 56.7°F13.7°C 55.6°F13.1°C 96% 4.3 mph SSW6.9 kmh SSW 5.9 mph9.5 kmh 29.85 in1010.8 mb 0.00 in0.0 mm 0.00 in0.0 mm 0.00 in0.0 mm
05:00 AM 56.9°F13.8°C 55.8°F13.2°C 96% 3.8 mph S6.1 kmh S 5.9 mph9.5 kmh 29.85 in1010.8 mb 0.00 in0.0 mm 0.00 in0.0 mm 0.00 in0.0 mm
04:58 AM 56.9°F13.8°C 55.8°F13.2°C 96% 2.7 mph S4.3 kmh S 5.9 mph9.5 kmh 29.85 in1010.8 mb 0.00 in0.0 mm 0.00 in0.0 mm 0.00 in0.0 mm
04:57 AM 56.9°F13.8°C 55.8°F13.2°C 96% 4.8 mph SW7.7 kmh SW 5.9 mph9.5 kmh 29.85 in1010.8 mb 0.00 in0.0 mm 0.00 in0.0 mm 0.00 in0.0 mm
04:56 AM 56.9°F13.8°C 55.8°F13.2°C 96% 3.2 mph S5.1 kmh S 4.3 mph6.9 kmh 29.85 in1010.8 mb 0.00 in0.0 mm 0.00 in0.0 mm 0.00 in0.0 mm
04:54 AM 56.9°F13.8°C 55.8°F13.2°C 96% 3.2 mph S5.1 kmh S 4.3 mph6.9 kmh 29.85 in1010.8 mb 0.00 in0.0 mm 0.00 in0.0 mm 0.00 in0.0 mm
04:53 AM 56.9°F13.8°C 55.8°F13.2°C 96% Calm Calm 4.3 mph6.9 kmh 29.85 in1010.8 mb 0.00 in0.0 mm 0.00 in0.0 mm 0.00 in0.0 mm
04:52 AM 56.9°F13.8°C 55.8°F13.2°C 96% 3.2 mph S5.1 kmh S 4.3 mph6.9 kmh 29.85 in1010.8 mb 0.00 in0.0 mm 0.00 in0.0 mm 0.00 in0.0 mm
04:50 AM 56.9°F13.8°C 55.8°F13.2°C 96% Calm Calm 4.3 mph6.9 kmh 29.85 in1010.8 mb 0.00 in0.0 mm 0.00 in0.0 mm 0.00 in0.0 mm
04:48 AM 56.9°F13.8°C 55.8°F13.2°C 96% 3.2 mph SSW5.1 kmh SSW 4.3 mph6.9 kmh 29.85 in1010.8 mb 0.00 in0.0 mm 0.00 in0.0 mm 0.00 in0.0 mm
04:47 AM 56.9°F13.8°C 55.8°F13.2°C 96% 3.2 mph SSE5.1 kmh SSE 4.3 mph6.9 kmh 29.85 in1010.8 mb 0.00 in0.0 mm 0.00 in0.0 mm 0.00 in0.0 mm
04:46 AM 56.9°F13.8°C 55.8°F13.2°C 96% 3.2 mph S5.1 kmh S 5.4 mph8.7 kmh 29.85 in1010.8 mb 0.00 in0.0 mm 0.00 in0.0 mm 0.00 in0.0 mm
04:45 AM 56.7°F13.7°C 55.6°F13.1°C 96% 3.2 mph S5.1 kmh S 5.4 mph8.7 kmh 29.85 in1010.8 mb 0.00 in0.0 mm 0.00 in0.0 mm 0.00 in0.0 mm
04:43 AM 56.9°F13.8°C 55.8°F13.2°C 96% 2.7 mph S4.3 kmh S 5.4 mph8.7 kmh 29.85 in1010.8 mb 0.00 in0.0 mm 0.00 in0.0 mm 0.00 in0.0 mm
04:42 AM 56.9°F13.8°C 55.8°F13.2°C 96% 2.7 mph S4.3 kmh S 6.4 mph10.3 kmh 29.85 in1010.8 mb 0.00 in0.0 mm 0.00 in0.0 mm 0.00 in0.0 mm
04:41 AM 56.9°F13.8°C 55.8°F13.2°C 96% 3.2 mph S5.1 kmh S 6.4 mph10.3 kmh 29.85 in1010.8 mb 0.00 in0.0 mm 0.00 in0.0 mm 0.00 in0.0 mm
04:39 AM 56.9°F13.8°C 55.8°F13.2°C 96% 3.8 mph S6.1 kmh S 6.4 mph10.3 kmh 29.85 in1010.8 mb 0.00 in0.0 mm 0.00 in0.0 mm 0.00 in0.0 mm
04:37 AM 56.9°F13.8°C 55.8°F13.2°C 96% Calm Calm 6.4 mph10.3 kmh 29.85 in1010.8 mb 0.00 in0.0 mm 0.00 in0.0 mm 0.00 in0.0 mm
04:36 AM 56.9°F13.8°C 55.8°F13.2°C 96% 3.8 mph S6.1 kmh S 6.4 mph10.3 kmh 29.85 in1010.8 mb 0.00 in0.0 mm 0.00 in0.0 mm 0.00 in0.0 mm
04:34 AM 56.9°F13.8°C 55.8°F13.2°C 96% 4.8 mph S7.7 kmh S 5.9 mph9.5 kmh 29.85 in1010.8 mb 0.00 in0.0 mm 0.00 in0.0 mm 0.00 in0.0 mm
04:33 AM 56.9°F13.8°C 55.8°F13.2°C 96% 4.3 mph SSW6.9 kmh SSW 5.9 mph9.5 kmh 29.85 in1010.8 mb 0.00 in0.0 mm 0.00 in0.0 mm 0.00 in0.0 mm
04:32 AM 56.9°F13.8°C 55.8°F13.2°C 96% 2.7 mph S4.3 kmh S 5.9 mph9.5 kmh 29.85 in1010.8 mb 0.00 in0.0 mm 0.00 in0.0 mm 0.00 in0.0 mm
04:30 AM 56.9°F13.8°C 55.8°F13.2°C 96% 3.8 mph SE6.1 kmh SE 5.9 mph9.5 kmh 29.85 in1010.8 mb 0.00 in0.0 mm 0.00 in0.0 mm 0.00 in0.0 mm
04:29 AM 56.9°F13.8°C 55.5°F13.1°C 95% Calm Calm 5.9 mph9.5 kmh 29.85 in1010.8 mb 0.00 in0.0 mm 0.00 in0.0 mm 0.00 in0.0 mm
04:27 AM 56.9°F13.8°C 55.5°F13.1°C 95% 3.8 mph S6.1 kmh S 4.8 mph7.7 kmh 29.85 in1010.8 mb 0.00 in0.0 mm 0.00 in0.0 mm 0.00 in0.0 mm
04:26 AM 56.9°F13.8°C 55.5°F13.1°C 95% Calm Calm 5.9 mph9.5 kmh 29.85 in1010.8 mb 0.00 in0.0 mm 0.00 in0.0 mm 0.00 in0.0 mm
04:25 AM 56.9°F13.8°C 55.5°F13.1°C 95% 4.3 mph S6.9 kmh S 5.9 mph9.5 kmh 29.85 in1010.8 mb 0.00 in0.0 mm 0.00 in0.0 mm 0.00 in0.0 mm
04:23 AM 56.9°F13.8°C 55.5°F13.1°C 95% 3.8 mph S6.1 kmh S 5.9 mph9.5 kmh 29.85 in1010.8 mb 0.00 in0.0 mm 0.00 in0.0 mm 0.00 in0.0 mm
04:22 AM 56.9°F13.8°C 55.5°F13.1°C 95% 2.7 mph SE4.3 kmh SE 5.9 mph9.5 kmh 29.85 in1010.8 mb 0.00 in0.0 mm 0.00 in0.0 mm 0.00 in0.0 mm
04:20 AM 56.9°F13.8°C 55.5°F13.1°C 95% 4.8 mph S7.7 kmh S 5.9 mph9.5 kmh 29.85 in1010.8 mb 0.00 in0.0 mm 0.00 in0.0 mm 0.00 in0.0 mm
04:19 AM 57.1°F13.9°C 55.7°F13.2°C 95% Calm Calm 5.4 mph8.7 kmh 29.85 in1010.8 mb 0.00 in0.0 mm 0.00 in0.0 mm 0.00 in0.0 mm
04:18 AM 57.1°F13.9°C 55.7°F13.2°C 95% 3.2 mph SSW5.1 kmh SSW 5.4 mph8.7 kmh 29.85 in1010.8 mb 0.00 in0.0 mm 0.00 in0.0 mm 0.00 in0.0 mm
04:17 AM 57.1°F13.9°C 55.7°F13.2°C 95% 5.4 mph SSW8.7 kmh SSW 5.4 mph8.7 kmh 29.85 in1010.8 mb 0.00 in0.0 mm 0.00 in0.0 mm 0.00 in0.0 mm
04:15 AM 57.1°F13.9°C 55.7°F13.2°C 95% Calm Calm 4.8 mph7.7 kmh 29.85 in1010.8 mb 0.00 in0.0 mm 0.00 in0.0 mm 0.00 in0.0 mm
04:14 AM 57.1°F13.9°C 55.7°F13.2°C 95% 3.8 mph S6.1 kmh S 7.5 mph12.1 kmh 29.85 in1010.8 mb 0.00 in0.0 mm 0.00 in0.0 mm 0.00 in0.0 mm
04:12 AM 57.1°F13.9°C 55.7°F13.2°C 95% 3.2 mph S5.1 kmh S 7.5 mph12.1 kmh 29.85 in1010.8 mb 0.00 in0.0 mm 0.00 in0.0 mm 0.00 in0.0 mm
04:11 AM 57.1°F13.9°C 55.7°F13.2°C 95% 3.2 mph S5.1 kmh S 7.5 mph12.1 kmh 29.85 in1010.8 mb 0.00 in0.0 mm 0.00 in0.0 mm 0.00 in0.0 mm
04:09 AM 57.1°F13.9°C 55.7°F13.2°C 95% Calm Calm 7.5 mph12.1 kmh 29.85 in1010.8 mb 0.00 in0.0 mm 0.00 in0.0 mm 0.00 in0.0 mm
04:08 AM 57.1°F13.9°C 55.7°F13.2°C 95% 4.3 mph SW6.9 kmh SW 7.5 mph12.1 kmh 29.85 in1010.8 mb 0.00 in0.0 mm 0.00 in0.0 mm 0.00 in0.0 mm
04:07 AM 57.1°F13.9°C 55.7°F13.2°C 95% 4.3 mph SW6.9 kmh SW 4.8 mph7.7 kmh 29.85 in1010.8 mb 0.00 in0.0 mm 0.00 in0.0 mm 0.00 in0.0 mm
04:05 AM 57.1°F13.9°C 55.7°F13.2°C 95% 3.2 mph S5.1 kmh S 7.0 mph11.3 kmh 29.85 in1010.8 mb 0.00 in0.0 mm 0.00 in0.0 mm 0.00 in0.0 mm
04:04 AM 57.1°F13.9°C 55.7°F13.2°C 95% 3.2 mph SSW5.1 kmh SSW 7.0 mph11.3 kmh 29.85 in1010.8 mb 0.00 in0.0 mm 0.00 in0.0 mm 0.00 in0.0 mm
04:02 AM 57.1°F13.9°C 55.7°F13.2°C 95% 4.8 mph SSW7.7 kmh SSW 7.0 mph11.3 kmh 29.85 in1010.8 mb 0.00 in0.0 mm 0.00 in0.0 mm 0.00 in0.0 mm
04:01 AM 57.1°F13.9°C 55.7°F13.2°C 95% 3.2 mph S5.1 kmh S 7.0 mph11.3 kmh 29.85 in1010.8 mb 0.00 in0.0 mm 0.00 in0.0 mm 0.00 in0.0 mm
04:00 AM 57.1°F13.9°C 55.7°F13.2°C 95% 5.9 mph S9.5 kmh S 7.0 mph11.3 kmh 29.85 in1010.8 mb 0.00 in0.0 mm 0.00 in0.0 mm 0.00 in0.0 mm
03:58 AM 57.1°F13.9°C 55.7°F13.2°C 95% 3.8 mph SSE6.1 kmh SSE 7.0 mph11.3 kmh 29.85 in1010.8 mb 0.00 in0.0 mm 0.00 in0.0 mm 0.00 in0.0 mm
03:57 AM 57.1°F13.9°C 55.7°F13.2°C 95% 3.2 mph SSE5.1 kmh SSE 6.4 mph10.3 kmh 29.85 in1010.8 mb 0.00 in0.0 mm 0.00 in0.0 mm 0.00 in0.0 mm
03:56 AM 57.1°F13.9°C 55.7°F13.2°C 95% Calm Calm 6.4 mph10.3 kmh 29.85 in1010.8 mb 0.00 in0.0 mm 0.00 in0.0 mm 0.00 in0.0 mm
03:55 AM 57.1°F13.9°C 55.7°F13.2°C 95% 3.8 mph S6.1 kmh S 6.4 mph10.3 kmh 29.85 in1010.8 mb 0.00 in0.0 mm 0.00 in0.0 mm 0.00 in0.0 mm
03:54 AM 57.1°F13.9°C 55.7°F13.2°C 95% 4.3 mph SW6.9 kmh SW 4.8 mph7.7 kmh 29.85 in1010.8 mb 0.00 in0.0 mm 0.00 in0.0 mm 0.00 in0.0 mm
03:53 AM 57.1°F13.9°C 55.7°F13.2°C 95% 3.2 mph S5.1 kmh S 4.8 mph7.7 kmh 29.85 in1010.8 mb 0.00 in0.0 mm 0.00 in0.0 mm 0.00 in0.0 mm
03:51 AM 57.1°F13.9°C 55.7°F13.2°C 95% 3.2 mph S5.1 kmh S 4.8 mph7.7 kmh 29.85 in1010.8 mb 0.00 in0.0 mm 0.00 in0.0 mm 0.00 in0.0 mm
03:50 AM 56.9°F13.8°C 55.5°F13.1°C 95% 4.8 mph SSW7.7 kmh SSW 4.8 mph7.7 kmh 29.85 in1010.8 mb 0.00 in0.0 mm 0.00 in0.0 mm 0.00 in0.0 mm
03:48 AM 56.9°F13.8°C 55.2°F12.9°C 94% 2.7 mph S4.3 kmh S 7.0 mph11.3 kmh 29.85 in1010.8 mb 0.00 in0.0 mm 0.00 in0.0 mm 0.00 in0.0 mm
03:47 AM 56.9°F13.8°C 55.2°F12.9°C 94% 2.7 mph S4.3 kmh S 7.0 mph11.3 kmh 29.85 in1010.8 mb 0.00 in0.0 mm 0.00 in0.0 mm 0.00 in0.0 mm
03:45 AM 56.9°F13.8°C 55.2°F12.9°C 94% 4.3 mph S6.9 kmh S 7.0 mph11.3 kmh 29.85 in1010.8 mb 0.00 in0.0 mm 0.00 in0.0 mm 0.00 in0.0 mm
03:44 AM 56.9°F13.8°C 55.2°F12.9°C 94% 3.8 mph S6.1 kmh S 7.0 mph11.3 kmh 29.85 in1010.8 mb 0.00 in0.0 mm 0.00 in0.0 mm 0.00 in0.0 mm
03:43 AM 56.9°F13.8°C 55.2°F12.9°C 94% Calm Calm 7.0 mph11.3 kmh 29.88 in1011.9 mb 0.00 in0.0 mm 0.00 in0.0 mm 0.00 in0.0 mm
03:41 AM 56.9°F13.8°C 55.2°F12.9°C 94% 4.3 mph S6.9 kmh S 7.0 mph11.3 kmh 29.88 in1011.9 mb 0.00 in0.0 mm 0.00 in0.0 mm 0.00 in0.0 mm
03:40 AM 57.1°F13.9°C 55.4°F13.0°C 94% 2.7 mph SSW4.3 kmh SSW 7.0 mph11.3 kmh 29.88 in1011.9 mb 0.00 in0.0 mm 0.00 in0.0 mm 0.00 in0.0 mm
03:38 AM 57.1°F13.9°C 55.4°F13.0°C 94% 3.2 mph S5.1 kmh S 7.0 mph11.3 kmh 29.88 in1011.9 mb 0.00 in0.0 mm 0.00 in0.0 mm 0.00 in0.0 mm
03:37 AM 57.1°F13.9°C 55.4°F13.0°C 94% 3.8 mph S6.1 kmh S 7.0 mph11.3 kmh 29.88 in1011.9 mb 0.00 in0.0 mm 0.00 in0.0 mm 0.00 in0.0 mm
03:36 AM 56.9°F13.8°C 55.2°F12.9°C 94% 4.8 mph SE7.7 kmh SE 7.0 mph11.3 kmh 29.88 in1011.9 mb 0.00 in0.0 mm 0.00 in0.0 mm 0.00 in0.0 mm
03:34 AM 56.9°F13.8°C 55.2°F12.9°C 94% 3.8 mph SSW6.1 kmh SSW 7.0 mph11.3 kmh 29.88 in1011.9 mb 0.00 in0.0 mm 0.00 in0.0 mm 0.00 in0.0 mm
03:33 AM 56.9°F13.8°C 55.2°F12.9°C 94% 7.0 mph SE11.3 kmh SE 7.0 mph11.3 kmh 29.88 in1011.9 mb 0.00 in0.0 mm 0.00 in0.0 mm 0.00 in0.0 mm
03:31 AM 56.9°F13.8°C 55.2°F12.9°C 94% 4.8 mph SSW7.7 kmh SSW 6.4 mph10.3 kmh 29.88 in1011.9 mb 0.00 in0.0 mm 0.00 in0.0 mm 0.00 in0.0 mm
03:30 AM 57.1°F13.9°C 55.4°F13.0°C 94% 3.8 mph S6.1 kmh S 6.4 mph10.3 kmh 29.88 in1011.9 mb 0.00 in0.0 mm 0.00 in0.0 mm 0.00 in0.0 mm
03:29 AM 57.1°F13.9°C 55.4°F13.0°C 94% Calm Calm 5.9 mph9.5 kmh 29.88 in1011.9 mb 0.00 in0.0 mm 0.00 in0.0 mm 0.00 in0.0 mm
03:27 AM 57.1°F13.9°C 55.4°F13.0°C 94% 2.7 mph S4.3 kmh S 5.9 mph9.5 kmh 29.88 in1011.9 mb 0.00 in0.0 mm 0.00 in0.0 mm 0.00 in0.0 mm
03:26 AM 57.1°F13.9°C 55.4°F13.0°C 94% 4.3 mph S6.9 kmh S 5.9 mph9.5 kmh 29.88 in1011.9 mb 0.00 in0.0 mm 0.00 in0.0 mm 0.00 in0.0 mm
03:24 AM 57.1°F13.9°C 55.4°F13.0°C 94% 4.3 mph SSW6.9 kmh SSW 5.9 mph9.5 kmh 29.88 in1011.9 mb 0.00 in0.0 mm 0.00 in0.0 mm 0.00 in0.0 mm
03:23 AM 57.1°F13.9°C 55.4°F13.0°C 94% 3.2 mph S5.1 kmh S 6.4 mph10.3 kmh 29.88 in1011.9 mb 0.00 in0.0 mm 0.00 in0.0 mm 0.00 in0.0 mm
03:22 AM 57.1°F13.9°C 55.4°F13.0°C 94% 3.2 mph SSE5.1 kmh SSE 6.4 mph10.3 kmh 29.88 in1011.9 mb 0.00 in0.0 mm 0.00 in0.0 mm 0.00 in0.0 mm
03:20 AM 57.1°F13.9°C 55.4°F13.0°C 94% 3.8 mph S6.1 kmh S 6.4 mph10.3 kmh 29.88 in1011.9 mb 0.00 in0.0 mm 0.00 in0.0 mm 0.00 in0.0 mm
03:19 AM 57.1°F13.9°C 55.4°F13.0°C 94% Calm Calm 6.4 mph10.3 kmh 29.88 in1011.9 mb 0.00 in0.0 mm 0.00 in0.0 mm 0.00 in0.0 mm
03:17 AM 57.1°F13.9°C 55.4°F13.0°C 94% 3.2 mph S5.1 kmh S 5.9 mph9.5 kmh 29.88 in1011.9 mb 0.00 in0.0 mm 0.00 in0.0 mm 0.00 in0.0 mm
03:15 AM 57.1°F13.9°C 55.4°F13.0°C 94% Calm Calm 5.9 mph9.5 kmh 29.88 in1011.9 mb 0.00 in0.0 mm 0.00 in0.0 mm 0.00 in0.0 mm
03:13 AM 57.1°F13.9°C 55.4°F13.0°C 94% 3.2 mph S5.1 kmh S 5.9 mph9.5 kmh 29.88 in1011.9 mb 0.00 in0.0 mm 0.00 in0.0 mm 0.00 in0.0 mm
03:12 AM 57.1°F13.9°C 55.4°F13.0°C 94% Calm Calm 5.9 mph9.5 kmh 29.88 in1011.9 mb 0.00 in0.0 mm 0.00 in0.0 mm 0.00 in0.0 mm
03:11 AM 57.1°F13.9°C 55.4°F13.0°C 94% 3.2 mph S5.1 kmh S 5.9 mph9.5 kmh 29.88 in1011.9 mb 0.00 in0.0 mm 0.00 in0.0 mm 0.00 in0.0 mm
03:10 AM 57.1°F13.9°C 55.4°F13.0°C 94% 4.8 mph S7.7 kmh S 5.9 mph9.5 kmh 29.88 in1011.9 mb 0.00 in0.0 mm 0.00 in0.0 mm 0.00 in0.0 mm
03:08 AM 57.1°F13.9°C 55.4°F13.0°C 94% Calm Calm 3.8 mph6.1 kmh 29.88 in1011.9 mb 0.00 in0.0 mm 0.00 in0.0 mm 0.00 in0.0 mm
03:06 AM 57.1°F13.9°C 55.4°F13.0°C 94% Calm Calm 4.8 mph7.7 kmh 29.88 in1011.9 mb 0.00 in0.0 mm 0.00 in0.0 mm 0.00 in0.0 mm
03:05 AM 57.1°F13.9°C 55.4°F13.0°C 94% 3.8 mph S6.1 kmh S 4.8 mph7.7 kmh 29.88 in1011.9 mb 0.00 in0.0 mm 0.00 in0.0 mm 0.00 in0.0 mm
03:03 AM 57.3°F14.1°C 55.6°F13.1°C 94% Calm Calm 4.8 mph7.7 kmh 29.88 in1011.9 mb 0.00 in0.0 mm 0.00 in0.0 mm 0.00 in0.0 mm
03:01 AM 57.3°F14.1°C 55.6°F13.1°C 94% 3.2 mph SSW5.1 kmh SSW 6.4 mph10.3 kmh 29.88 in1011.9 mb 0.00 in0.0 mm 0.00 in0.0 mm 0.00 in0.0 mm
02:59 AM 57.3°F14.1°C 55.6°F13.1°C 94% 3.2 mph SSW5.1 kmh SSW 6.4 mph10.3 kmh 29.88 in1011.9 mb 0.00 in0.0 mm 0.00 in0.0 mm 0.00 in0.0 mm
02:58 AM 57.3°F14.1°C 55.6°F13.1°C 94% Calm Calm 6.4 mph10.3 kmh 29.88 in1011.9 mb 0.00 in0.0 mm 0.00 in0.0 mm 0.00 in0.0 mm
02:56 AM 57.3°F14.1°C 55.6°F13.1°C 94% Calm Calm 6.4 mph10.3 kmh 29.88 in1011.9 mb 0.00 in0.0 mm 0.00 in0.0 mm 0.00 in0.0 mm
02:55 AM 57.3°F14.1°C 55.6°F13.1°C 94% 4.3 mph S6.9 kmh S 6.4 mph10.3 kmh 29.88 in1011.9 mb 0.00 in0.0 mm 0.00 in0.0 mm 0.00 in0.0 mm
02:54 AM 57.3°F14.1°C 55.6°F13.1°C 94% 4.8 mph S7.7 kmh S 6.4 mph10.3 kmh 29.88 in1011.9 mb 0.00 in0.0 mm 0.00 in0.0 mm 0.00 in0.0 mm
02:52 AM 57.3°F14.1°C 55.6°F13.1°C 94% 2.7 mph S4.3 kmh S 6.4 mph10.3 kmh 29.88 in1011.9 mb 0.00 in0.0 mm 0.00 in0.0 mm 0.00 in0.0 mm
02:51 AM 57.3°F14.1°C 55.6°F13.1°C 94% Calm Calm 4.3 mph6.9 kmh 29.88 in1011.9 mb 0.00 in0.0 mm 0.00 in0.0 mm 0.00 in0.0 mm
02:49 AM 57.3°F14.1°C 55.6°F13.1°C 94% Calm Calm 4.3 mph6.9 kmh 29.88 in1011.9 mb 0.00 in0.0 mm 0.00 in0.0 mm 0.00 in0.0 mm
02:48 AM 57.3°F14.1°C 55.6°F13.1°C 94% Calm Calm 4.3 mph6.9 kmh 29.88 in1011.9 mb 0.00 in0.0 mm 0.00 in0.0 mm 0.00 in0.0 mm
02:47 AM 57.3°F14.1°C 55.6°F13.1°C 94% Calm Calm 4.8 mph7.7 kmh 29.88 in1011.9 mb 0.00 in0.0 mm 0.00 in0.0 mm 0.00 in0.0 mm
02:45 AM 57.5°F14.2°C 55.8°F13.2°C 94% Calm Calm 4.8 mph7.7 kmh 29.88 in1011.9 mb 0.00 in0.0 mm 0.00 in0.0 mm 0.00 in0.0 mm
02:44 AM 57.5°F14.2°C 55.8°F13.2°C 94% Calm Calm 4.8 mph7.7 kmh 29.88 in1011.9 mb 0.00 in0.0 mm 0.00 in0.0 mm 0.00 in0.0 mm
02:42 AM 57.5°F14.2°C 55.8°F13.2°C 94% 3.2 mph S5.1 kmh S 4.8 mph7.7 kmh 29.88 in1011.9 mb 0.00 in0.0 mm 0.00 in0.0 mm 0.00 in0.0 mm
02:40 AM 57.5°F14.2°C 55.8°F13.2°C 94% 3.8 mph S6.1 kmh S 4.8 mph7.7 kmh 29.88 in1011.9 mb 0.00 in0.0 mm 0.00 in0.0 mm 0.00 in0.0 mm
02:39 AM 57.5°F14.2°C 55.8°F13.2°C 94% 3.2 mph S5.1 kmh S 4.8 mph7.7 kmh 29.88 in1011.9 mb 0.00 in0.0 mm 0.00 in0.0 mm 0.00 in0.0 mm
02:37 AM 57.5°F14.2°C 55.8°F13.2°C 94% 2.7 mph SSW4.3 kmh SSW 6.4 mph10.3 kmh 29.88 in1011.9 mb 0.00 in0.0 mm 0.00 in0.0 mm 0.00 in0.0 mm
02:35 AM 57.5°F14.2°C 55.8°F13.2°C 94% Calm Calm 6.4 mph10.3 kmh 29.88 in1011.9 mb 0.00 in0.0 mm 0.00 in0.0 mm 0.00 in0.0 mm
02:34 AM 57.5°F14.2°C 55.8°F13.2°C 94% 4.8 mph SSW7.7 kmh SSW 7.5 mph12.1 kmh 29.88 in1011.9 mb 0.00 in0.0 mm 0.00 in0.0 mm 0.00 in0.0 mm
02:33 AM 57.5°F14.2°C 55.8°F13.2°C 94% 4.3 mph SSW6.9 kmh SSW 7.5 mph12.1 kmh 29.88 in1011.9 mb 0.00 in0.0 mm 0.00 in0.0 mm 0.00 in0.0 mm
02:32 AM 57.5°F14.2°C 55.8°F13.2°C 94% 4.8 mph S7.7 kmh S 7.5 mph12.1 kmh 29.88 in1011.9 mb 0.00 in0.0 mm 0.00 in0.0 mm 0.00 in0.0 mm
02:30 AM 57.6°F14.2°C 55.9°F13.3°C 94% 3.2 mph SSW5.1 kmh SSW 7.5 mph12.1 kmh 29.88 in1011.9 mb 0.00 in0.0 mm 0.00 in0.0 mm 0.00 in0.0 mm
02:28 AM 57.6°F14.2°C 55.9°F13.3°C 94% 7.5 mph S12.1 kmh S 7.5 mph12.1 kmh 29.88 in1011.9 mb 0.00 in0.0 mm 0.00 in0.0 mm 0.00 in0.0 mm
02:27 AM 57.6°F14.2°C 55.9°F13.3°C 94% 3.2 mph S5.1 kmh S 6.4 mph10.3 kmh 29.91 in1012.9 mb 0.00 in0.0 mm 0.00 in0.0 mm 0.00 in0.0 mm
02:26 AM 57.6°F14.2°C 55.9°F13.3°C 94% 4.8 mph S7.7 kmh S 5.4 mph8.7 kmh 29.91 in1012.9 mb 0.00 in0.0 mm 0.00 in0.0 mm 0.00 in0.0 mm
02:24 AM 57.6°F14.2°C 55.9°F13.3°C 94% 3.2 mph S5.1 kmh S 5.4 mph8.7 kmh 29.91 in1012.9 mb 0.00 in0.0 mm 0.00 in0.0 mm 0.00 in0.0 mm
02:23 AM 57.6°F14.2°C 55.9°F13.3°C 94% 3.2 mph SSW5.1 kmh SSW 6.4 mph10.3 kmh 29.91 in1012.9 mb 0.00 in0.0 mm 0.00 in0.0 mm 0.00 in0.0 mm
02:21 AM 57.6°F14.2°C 55.9°F13.3°C 94% 3.2 mph S5.1 kmh S 6.4 mph10.3 kmh 29.91 in1012.9 mb 0.00 in0.0 mm 0.00 in0.0 mm 0.00 in0.0 mm
02:20 AM 57.6°F14.2°C 55.9°F13.3°C 94% 4.3 mph SE6.9 kmh SE 6.4 mph10.3 kmh 29.91 in1012.9 mb 0.00 in0.0 mm 0.00 in0.0 mm 0.00 in0.0 mm
02:19 AM 57.6°F14.2°C 55.9°F13.3°C 94% Calm Calm 6.4 mph10.3 kmh 29.91 in1012.9 mb 0.00 in0.0 mm 0.00 in0.0 mm 0.00 in0.0 mm
02:18 AM 57.6°F14.2°C 55.9°F13.3°C 94% Calm Calm 6.4 mph10.3 kmh 29.91 in1012.9 mb 0.00 in0.0 mm 0.00 in0.0 mm 0.00 in0.0 mm
02:16 AM 57.6°F14.2°C 55.9°F13.3°C 94% 3.8 mph S6.1 kmh S 4.8 mph7.7 kmh 29.91 in1012.9 mb 0.00 in0.0 mm 0.00 in0.0 mm 0.00 in0.0 mm
02:14 AM 57.6°F14.2°C 55.9°F13.3°C 94% 4.8 mph S7.7 kmh S 4.8 mph7.7 kmh 29.91 in1012.9 mb 0.00 in0.0 mm 0.00 in0.0 mm 0.00 in0.0 mm
02:13 AM 57.6°F14.2°C 55.9°F13.3°C 94% 4.8 mph S7.7 kmh S 4.8 mph7.7 kmh 29.91 in1012.9 mb 0.00 in0.0 mm 0.00 in0.0 mm 0.00 in0.0 mm
02:12 AM 57.6°F14.2°C 55.9°F13.3°C 94% 3.2 mph S5.1 kmh S 4.8 mph7.7 kmh 29.91 in1012.9 mb 0.00 in0.0 mm 0.00 in0.0 mm 0.00 in0.0 mm
02:10 AM 57.6°F14.2°C 55.9°F13.3°C 94% 4.8 mph S7.7 kmh S 4.8 mph7.7 kmh 29.91 in1012.9 mb 0.00 in0.0 mm 0.00 in0.0 mm 0.00 in0.0 mm
02:09 AM 57.6°F14.2°C 55.9°F13.3°C 94% Calm Calm 4.3 mph6.9 kmh 29.91 in1012.9 mb 0.00 in0.0 mm 0.00 in0.0 mm 0.00 in0.0 mm
02:07 AM 57.6°F14.2°C 55.6°F13.1°C 93% 4.3 mph S6.9 kmh S 4.3 mph6.9 kmh 29.91 in1012.9 mb 0.00 in0.0 mm 0.00 in0.0 mm 0.00 in0.0 mm
02:06 AM 57.6°F14.2°C 55.6°F13.1°C 93% Calm Calm -- 29.91 in1012.9 mb 0.00 in0.0 mm 0.00 in0.0 mm 0.00 in0.0 mm
02:05 AM 57.6°F14.2°C 55.6°F13.1°C 93% Calm Calm 4.8 mph7.7 kmh 29.91 in1012.9 mb 0.00 in0.0 mm 0.00 in0.0 mm 0.00 in0.0 mm
02:03 AM 57.6°F14.2°C 55.6°F13.1°C 93% Calm Calm 4.8 mph7.7 kmh 29.91 in1012.9 mb 0.00 in0.0 mm 0.00 in0.0 mm 0.00 in0.0 mm
02:02 AM 57.6°F14.2°C 55.6°F13.1°C 93% Calm Calm 4.8 mph7.7 kmh 29.91 in1012.9 mb 0.00 in0.0 mm 0.00 in0.0 mm 0.00 in0.0 mm
02:01 AM 57.6°F14.2°C 55.6°F13.1°C 93% Calm Calm 4.8 mph7.7 kmh 29.91 in1012.9 mb 0.00 in0.0 mm 0.00 in0.0 mm 0.00 in0.0 mm
01:59 AM 57.6°F14.2°C 55.6°F13.1°C 93% Calm Calm 5.4 mph8.7 kmh 29.91 in1012.9 mb 0.00 in0.0 mm 0.00 in0.0 mm 0.00 in0.0 mm
01:58 AM 57.6°F14.2°C 55.6°F13.1°C 93% 4.8 mph SSE7.7 kmh SSE 5.4 mph8.7 kmh 29.91 in1012.9 mb 0.00 in0.0 mm 0.00 in0.0 mm 0.00 in0.0 mm
01:57 AM 57.6°F14.2°C 55.6°F13.1°C 93% 3.2 mph S5.1 kmh S 5.4 mph8.7 kmh 29.91 in1012.9 mb 0.00 in0.0 mm 0.00 in0.0 mm 0.00 in0.0 mm
01:55 AM 57.6°F14.2°C 55.6°F13.1°C 93% 2.7 mph S4.3 kmh S 5.4 mph8.7 kmh 29.91 in1012.9 mb 0.00 in0.0 mm 0.00 in0.0 mm 0.00 in0.0 mm
01:54 AM 57.6°F14.2°C 55.6°F13.1°C 93% 4.3 mph SSW6.9 kmh SSW 5.4 mph8.7 kmh 29.91 in1012.9 mb 0.00 in0.0 mm 0.00 in0.0 mm 0.00 in0.0 mm
01:52 AM 57.6°F14.2°C 55.6°F13.1°C 93% 3.8 mph S6.1 kmh S 5.9 mph9.5 kmh 29.91 in1012.9 mb 0.00 in0.0 mm 0.00 in0.0 mm 0.00 in0.0 mm
01:51 AM 57.6°F14.2°C 55.6°F13.1°C 93% Calm Calm 5.9 mph9.5 kmh 29.91 in1012.9 mb 0.00 in0.0 mm 0.00 in0.0 mm 0.00 in0.0 mm
01:49 AM 57.6°F14.2°C 55.6°F13.1°C 93% 3.8 mph S6.1 kmh S 5.9 mph9.5 kmh 29.91 in1012.9 mb 0.00 in0.0 mm 0.00 in0.0 mm 0.00 in0.0 mm
01:48 AM 57.6°F14.2°C 55.6°F13.1°C 93% Calm Calm 5.9 mph9.5 kmh 29.91 in1012.9 mb 0.00 in0.0 mm 0.00 in0.0 mm 0.00 in0.0 mm
01:46 AM 57.6°F14.2°C 55.6°F13.1°C 93% 3.8 mph S6.1 kmh S 5.9 mph9.5 kmh 29.91 in1012.9 mb 0.00 in0.0 mm 0.00 in0.0 mm 0.00 in0.0 mm
01:45 AM 57.6°F14.2°C 55.6°F13.1°C 93% 4.3 mph SSW6.9 kmh SSW 4.8 mph7.7 kmh 29.91 in1012.9 mb 0.00 in0.0 mm 0.00 in0.0 mm 0.00 in0.0 mm
01:44 AM 57.6°F14.2°C 55.6°F13.1°C 93% 3.2 mph S5.1 kmh S 4.8 mph7.7 kmh 29.91 in1012.9 mb 0.00 in0.0 mm 0.00 in0.0 mm 0.00 in0.0 mm
01:42 AM 57.6°F14.2°C 55.6°F13.1°C 93% 3.2 mph S5.1 kmh S 9.1 mph14.6 kmh 29.91 in1012.9 mb 0.00 in0.0 mm 0.00 in0.0 mm 0.00 in0.0 mm
01:41 AM 57.6°F14.2°C 55.6°F13.1°C 93% 2.7 mph SSW4.3 kmh SSW 9.1 mph14.6 kmh 29.91 in1012.9 mb 0.00 in0.0 mm 0.00 in0.0 mm 0.00 in0.0 mm
01:40 AM 57.6°F14.2°C 55.6°F13.1°C 93% 3.2 mph S5.1 kmh S 9.1 mph14.6 kmh 29.91 in1012.9 mb 0.00 in0.0 mm 0.00 in0.0 mm 0.00 in0.0 mm
01:38 AM 57.6°F14.2°C 55.3°F12.9°C 92% 4.8 mph S7.7 kmh S 9.1 mph14.6 kmh 29.91 in1012.9 mb 0.00 in0.0 mm 0.00 in0.0 mm 0.00 in0.0 mm
01:37 AM 57.6°F14.2°C 55.3°F12.9°C 92% 4.8 mph S7.7 kmh S 9.1 mph14.6 kmh 29.91 in1012.9 mb 0.00 in0.0 mm 0.00 in0.0 mm 0.00 in0.0 mm
01:35 AM 57.6°F14.2°C 55.3°F12.9°C 92% 3.8 mph S6.1 kmh S 6.4 mph10.3 kmh 29.91 in1012.9 mb 0.00 in0.0 mm 0.00 in0.0 mm 0.00 in0.0 mm
01:34 AM 57.6°F14.2°C 55.3°F12.9°C 92% 3.2 mph S5.1 kmh S 6.4 mph10.3 kmh 29.91 in1012.9 mb 0.00 in0.0 mm 0.00 in0.0 mm 0.00 in0.0 mm
01:32 AM 57.6°F14.2°C 55.3°F12.9°C 92% 3.8 mph SSW6.1 kmh SSW 6.4 mph10.3 kmh 29.91 in1012.9 mb 0.00 in0.0 mm 0.00 in0.0 mm 0.00 in0.0 mm
01:31 AM 57.6°F14.2°C 55.3°F12.9°C 92% 3.2 mph SSE5.1 kmh SSE 6.4 mph10.3 kmh 29.91 in1012.9 mb 0.00 in0.0 mm 0.00 in0.0 mm 0.00 in0.0 mm
01:30 AM 57.6°F14.2°C 55.3°F12.9°C 92% Calm Calm 4.8 mph7.7 kmh 29.91 in1012.9 mb 0.00 in0.0 mm 0.00 in0.0 mm 0.00 in0.0 mm
01:28 AM 57.5°F14.2°C 55.2°F12.9°C 92% Calm Calm 7.5 mph12.1 kmh 29.91 in1012.9 mb 0.00 in0.0 mm 0.00 in0.0 mm 0.00 in0.0 mm
01:27 AM 57.5°F14.2°C 55.2°F12.9°C 92% 3.2 mph SSE5.1 kmh SSE 7.5 mph12.1 kmh 29.91 in1012.9 mb 0.00 in0.0 mm 0.00 in0.0 mm 0.00 in0.0 mm
01:25 AM 57.5°F14.2°C 55.2°F12.9°C 92% 3.8 mph S6.1 kmh S 7.5 mph12.1 kmh 29.91 in1012.9 mb 0.00 in0.0 mm 0.00 in0.0 mm 0.00 in0.0 mm
01:24 AM 57.5°F14.2°C 55.2°F12.9°C 92% 2.7 mph SW4.3 kmh SW 7.5 mph12.1 kmh 29.91 in1012.9 mb 0.00 in0.0 mm 0.00 in0.0 mm 0.00 in0.0 mm
01:23 AM 57.5°F14.2°C 54.9°F12.7°C 91% 3.2 mph S5.1 kmh S 7.5 mph12.1 kmh 29.91 in1012.9 mb 0.00 in0.0 mm 0.00 in0.0 mm 0.00 in0.0 mm
01:21 AM 57.5°F14.2°C 54.9°F12.7°C 91% Calm Calm 7.0 mph11.3 kmh 29.91 in1012.9 mb 0.00 in0.0 mm 0.00 in0.0 mm 0.00 in0.0 mm
01:20 AM 57.5°F14.2°C 54.9°F12.7°C 91% 3.8 mph SSE6.1 kmh SSE 7.0 mph11.3 kmh 29.91 in1012.9 mb 0.00 in0.0 mm 0.00 in0.0 mm 0.00 in0.0 mm
01:18 AM 57.5°F14.2°C 54.9°F12.7°C 91% 3.8 mph SSW6.1 kmh SSW 7.0 mph11.3 kmh 29.91 in1012.9 mb 0.00 in0.0 mm 0.00 in0.0 mm 0.00 in0.0 mm
01:17 AM 57.3°F14.1°C 54.7°F12.6°C 91% 3.2 mph SSE5.1 kmh SSE 3.8 mph6.1 kmh 29.91 in1012.9 mb 0.00 in0.0 mm 0.00 in0.0 mm 0.00 in0.0 mm
01:16 AM 57.3°F14.1°C 54.4°F12.4°C 90% Calm Calm -- 29.91 in1012.9 mb 0.00 in0.0 mm 0.00 in0.0 mm 0.00 in0.0 mm
01:14 AM 57.3°F14.1°C 54.4°F12.4°C 90% Calm Calm -- 29.91 in1012.9 mb 0.00 in0.0 mm 0.00 in0.0 mm 0.00 in0.0 mm
01:13 AM 57.3°F14.1°C 54.4°F12.4°C 90% Calm Calm -- 29.91 in1012.9 mb 0.00 in0.0 mm 0.00 in0.0 mm 0.00 in0.0 mm
01:12 AM 57.3°F14.1°C 54.4°F12.4°C 90% Calm Calm -- 29.91 in1012.9 mb 0.00 in0.0 mm 0.00 in0.0 mm 0.00 in0.0 mm
01:10 AM 57.3°F14.1°C 54.4°F12.4°C 90% Calm Calm -- 29.91 in1012.9 mb 0.00 in0.0 mm 0.00 in0.0 mm 0.00 in0.0 mm
01:09 AM 57.3°F14.1°C 54.4°F12.4°C 90% Calm Calm -- 29.91 in1012.9 mb 0.00 in0.0 mm 0.00 in0.0 mm 0.00 in0.0 mm
01:07 AM 57.3°F14.1°C 54.1°F12.3°C 89% Calm Calm 4.8 mph7.7 kmh 29.91 in1012.9 mb 0.00 in0.0 mm 0.00 in0.0 mm 0.00 in0.0 mm
01:06 AM 57.3°F14.1°C 54.1°F12.3°C 89% Calm Calm 4.8 mph7.7 kmh 29.91 in1012.9 mb 0.00 in0.0 mm 0.00 in0.0 mm 0.00 in0.0 mm
01:04 AM 57.5°F14.2°C 54.3°F12.4°C 89% Calm Calm 5.9 mph9.5 kmh 29.91 in1012.9 mb 0.00 in0.0 mm 0.00 in0.0 mm 0.00 in0.0 mm
01:02 AM 57.5°F14.2°C 54.3°F12.4°C 89% Calm Calm 5.9 mph9.5 kmh 29.91 in1012.9 mb 0.00 in0.0 mm 0.00 in0.0 mm 0.00 in0.0 mm
01:00 AM 57.3°F14.1°C 53.8°F12.1°C 88% 4.8 mph S7.7 kmh S 5.9 mph9.5 kmh 29.91 in1012.9 mb 0.00 in0.0 mm 0.00 in0.0 mm 0.00 in0.0 mm
12:59 AM 57.5°F14.2°C 53.9°F12.2°C 88% 3.8 mph S6.1 kmh S 6.4 mph10.3 kmh 29.91 in1012.9 mb 0.00 in0.0 mm 0.00 in0.0 mm 0.00 in0.0 mm
12:57 AM 57.5°F14.2°C 53.9°F12.2°C 88% Calm Calm 6.4 mph10.3 kmh 29.91 in1012.9 mb 0.00 in0.0 mm 0.00 in0.0 mm 0.00 in0.0 mm
12:55 AM 57.5°F14.2°C 53.9°F12.2°C 88% Calm Calm 6.4 mph10.3 kmh 29.91 in1012.9 mb 0.00 in0.0 mm 0.00 in0.0 mm 0.00 in0.0 mm
12:53 AM 57.5°F14.2°C 53.9°F12.2°C 88% Calm Calm 6.4 mph10.3 kmh 29.91 in1012.9 mb 0.00 in0.0 mm 0.00 in0.0 mm 0.00 in0.0 mm
12:52 AM 57.5°F14.2°C 53.9°F12.2°C 88% 5.4 mph SE8.7 kmh SE 5.4 mph8.7 kmh 29.91 in1012.9 mb 0.00 in0.0 mm 0.00 in0.0 mm 0.00 in0.0 mm
12:51 AM 57.5°F14.2°C 53.6°F12.0°C 87% Calm Calm 4.3 mph6.9 kmh 29.91 in1012.9 mb 0.00 in0.0 mm 0.00 in0.0 mm 0.00 in0.0 mm
12:49 AM 57.5°F14.2°C 53.6°F12.0°C 87% Calm Calm 4.3 mph6.9 kmh 29.91 in1012.9 mb 0.00 in0.0 mm 0.00 in0.0 mm 0.00 in0.0 mm
12:48 AM 57.5°F14.2°C 53.6°F12.0°C 87% Calm Calm 4.8 mph7.7 kmh 29.91 in1012.9 mb 0.00 in0.0 mm 0.00 in0.0 mm 0.00 in0.0 mm
12:46 AM 57.5°F14.2°C 53.6°F12.0°C 87% Calm Calm 4.8 mph7.7 kmh 29.91 in1012.9 mb 0.00 in0.0 mm 0.00 in0.0 mm 0.00 in0.0 mm
12:45 AM 57.5°F14.2°C 53.6°F12.0°C 87% Calm Calm 4.8 mph7.7 kmh 29.91 in1012.9 mb 0.00 in0.0 mm 0.00 in0.0 mm 0.00 in0.0 mm
12:43 AM 57.5°F14.2°C 53.6°F12.0°C 87% Calm Calm 4.8 mph7.7 kmh 29.91 in1012.9 mb 0.00 in0.0 mm 0.00 in0.0 mm 0.00 in0.0 mm
12:41 AM 57.5°F14.2°C 53.6°F12.0°C 87% 4.8 mph S7.7 kmh S 4.8 mph7.7 kmh 29.91 in1012.9 mb 0.00 in0.0 mm 0.00 in0.0 mm 0.00 in0.0 mm
12:39 AM 57.5°F14.2°C 53.6°F12.0°C 87% 2.7 mph S4.3 kmh S 4.8 mph7.7 kmh 29.91 in1012.9 mb 0.00 in0.0 mm 0.00 in0.0 mm 0.00 in0.0 mm
12:38 AM 57.3°F14.1°C 53.1°F11.7°C 86% Calm Calm -- 29.91 in1012.9 mb 0.00 in0.0 mm 0.00 in0.0 mm 0.00 in0.0 mm
12:36 AM 57.3°F14.1°C 53.1°F11.7°C 86% Calm Calm -- 29.91 in1012.9 mb 0.00 in0.0 mm 0.00 in0.0 mm 0.00 in0.0 mm
12:35 AM 57.3°F14.1°C 53.1°F11.7°C 86% Calm Calm -- 29.91 in1012.9 mb 0.00 in0.0 mm 0.00 in0.0 mm 0.00 in0.0 mm
12:34 AM 57.3°F14.1°C 53.1°F11.7°C 86% Calm Calm -- 29.91 in1012.9 mb 0.00 in0.0 mm 0.00 in0.0 mm 0.00 in0.0 mm
12:32 AM 57.3°F14.1°C 53.1°F11.7°C 86% Calm Calm -- 29.91 in1012.9 mb 0.00 in0.0 mm 0.00 in0.0 mm 0.00 in0.0 mm
12:31 AM 57.3°F14.1°C 53.1°F11.7°C 86% Calm Calm -- 29.91 in1012.9 mb 0.00 in0.0 mm 0.00 in0.0 mm 0.00 in0.0 mm
12:29 AM 57.1°F13.9°C 53.0°F11.7°C 86% Calm Calm -- 29.91 in1012.9 mb 0.00 in0.0 mm 0.00 in0.0 mm 0.00 in0.0 mm
12:28 AM 57.1°F13.9°C 53.0°F11.7°C 86% Calm Calm -- 29.91 in1012.9 mb 0.00 in0.0 mm 0.00 in0.0 mm 0.00 in0.0 mm
12:27 AM 57.1°F13.9°C 53.0°F11.7°C 86% Calm Calm -- 29.91 in1012.9 mb 0.00 in0.0 mm 0.00 in0.0 mm 0.00 in0.0 mm
12:26 AM 57.1°F13.9°C 53.0°F11.7°C 86% Calm Calm -- 29.91 in1012.9 mb 0.00 in0.0 mm 0.00 in0.0 mm 0.00 in0.0 mm
12:24 AM 57.1°F13.9°C 53.0°F11.7°C 86% Calm Calm -- 29.91 in1012.9 mb 0.00 in0.0 mm 0.00 in0.0 mm 0.00 in0.0 mm
12:22 AM 57.1°F13.9°C 53.0°F11.7°C 86% Calm Calm -- 29.91 in1012.9 mb 0.00 in0.0 mm 0.00 in0.0 mm 0.00 in0.0 mm
12:21 AM 57.1°F13.9°C 53.0°F11.7°C 86% Calm Calm -- 29.91 in1012.9 mb 0.00 in0.0 mm 0.00 in0.0 mm 0.00 in0.0 mm
12:20 AM 56.9°F13.8°C 52.5°F11.4°C 85% Calm Calm -- 29.91 in1012.9 mb 0.00 in0.0 mm 0.00 in0.0 mm 0.00 in0.0 mm
12:19 AM 56.9°F13.8°C 52.5°F11.4°C 85% Calm Calm -- 29.91 in1012.9 mb 0.00 in0.0 mm 0.00 in0.0 mm 0.00 in0.0 mm
12:17 AM 56.7°F13.7°C 52.3°F11.3°C 85% Calm Calm -- 29.91 in1012.9 mb 0.00 in0.0 mm 0.00 in0.0 mm 0.00 in0.0 mm
12:15 AM 56.7°F13.7°C 52.3°F11.3°C 85% Calm Calm -- 29.91 in1012.9 mb 0.00 in0.0 mm 0.00 in0.0 mm 0.00 in0.0 mm
12:14 AM 56.6°F13.7°C 51.8°F11.0°C 84% Calm Calm -- 29.91 in1012.9 mb 0.00 in0.0 mm 0.00 in0.0 mm 0.00 in0.0 mm
12:13 AM 56.6°F13.7°C 51.8°F11.0°C 84% Calm Calm -- 29.91 in1012.9 mb 0.00 in0.0 mm 0.00 in0.0 mm 0.00 in0.0 mm
12:11 AM 56.6°F13.7°C 51.8°F11.0°C 84% Calm Calm -- 29.91 in1012.9 mb 0.00 in0.0 mm 0.00 in0.0 mm 0.00 in0.0 mm
12:10 AM 56.4°F13.6°C 51.6°F10.9°C 84% Calm Calm -- 29.91 in1012.9 mb 0.00 in0.0 mm 0.00 in0.0 mm 0.00 in0.0 mm
12:09 AM 56.4°F13.6°C 51.3°F10.7°C 83% Calm Calm -- 29.91 in1012.9 mb 0.00 in0.0 mm 0.00 in0.0 mm 0.00 in0.0 mm
12:07 AM 56.4°F13.6°C 51.3°F10.7°C 83% Calm Calm -- 29.91 in1012.9 mb 0.00 in0.0 mm 0.00 in0.0 mm 0.00 in0.0 mm
12:06 AM 56.4°F13.6°C 51.3°F10.7°C 83% Calm Calm -- 29.91 in1012.9 mb 0.00 in0.0 mm 0.00 in0.0 mm 0.00 in0.0 mm
12:04 AM 56.4°F13.6°C 51.3°F10.7°C 83% Calm Calm -- 29.91 in1012.9 mb 0.00 in0.0 mm 0.00 in0.0 mm 0.00 in0.0 mm
12:03 AM 56.4°F13.6°C 51.3°F10.7°C 83% Calm Calm -- 29.91 in1012.9 mb 0.00 in0.0 mm 0.00 in0.0 mm 0.00 in0.0 mm
12:02 AM 56.4°F13.6°C 51.3°F10.7°C 83% Calm Calm -- 29.91 in1012.9 mb 0.00 in0.0 mm 0.00 in0.0 mm 0.00 in0.0 mm
12:00 AM 56.4°F13.6°C 51.3°F10.7°C 83% Calm Calm -- 29.91 in1012.9 mb 0.00 in0.0 mm 0.00 in0.0 mm 0.00 in0.0 mm